TUA606 ZBAA-UTAA
Flight info
| Callsign | TUA606 |
|---|---|
| Flight time | 6h 43m |
| Altitude | 32100 |
| Route | BOTPU6J BOTPU W47 VIGEK W96 UPSUR W69 DKO W66 ATBUG/K0895S1100 W66 NUKTI B215 FKG A368 SARIN/K0891F360 N161 BURID DCT LIPSI DCT MALOD/K0898F380 N147 GENDI Z621 AGNAN/N0482F380 R433 ABDAN B114 BUROT BUR29A |
| Aircraft | B77W/H-SDE1E2E3FGHIJ2J3J4J5M1RWXY/LB1D1 |
Departure
| Time | 2026-04-21 06:33 |
|---|---|
| Airport | Beijing Capital International Airport (ZBAA) |
Arrival
| Time | 2026-04-21 13:16 |
|---|---|
| Airport | Ashgabat International Airport (UTAA) |
| Time | Latitude | Longitude | Altitude | Speed | Heading |
|---|---|---|---|---|---|
| 2026-04-21 06:07 | 40.07523 | 116.59033 | 156 ft | 0 kts | 353° |
| 2026-04-21 06:24 | 40.07510 | 116.59034 | 123 ft | 4 kts | 354° |
| 2026-04-21 06:24 | 40.07484 | 116.59038 | 123 ft | 2 kts | 353° |
| 2026-04-21 06:24 | 40.07462 | 116.59040 | 127 ft | 4 kts | 11° |
| 2026-04-21 06:25 | 40.07445 | 116.59032 | 126 ft | 4 kts | 51° |
| 2026-04-21 06:25 | 40.07437 | 116.59008 | 123 ft | 4 kts | 85° |
| 2026-04-21 06:25 | 40.07435 | 116.58974 | 123 ft | 2 kts | 83° |
| 2026-04-21 06:25 | 40.07435 | 116.58971 | 123 ft | 0 kts | 83° |
| 2026-04-21 06:28 | 40.07439 | 116.59022 | 125 ft | 14 kts | 83° |
| 2026-04-21 06:28 | 40.07453 | 116.59171 | 126 ft | 17 kts | 83° |
| 2026-04-21 06:28 | 40.07476 | 116.59317 | 124 ft | 17 kts | 81° |
| 2026-04-21 06:29 | 40.07531 | 116.59411 | 125 ft | 13 kts | 9° |
| 2026-04-21 06:29 | 40.07667 | 116.59393 | 126 ft | 23 kts | 353° |
| 2026-04-21 06:29 | 40.07829 | 116.59367 | 124 ft | 23 kts | 353° |
| 2026-04-21 06:29 | 40.07991 | 116.59341 | 125 ft | 23 kts | 353° |
| 2026-04-21 06:30 | 40.08153 | 116.59316 | 127 ft | 23 kts | 353° |
| 2026-04-21 06:30 | 40.08315 | 116.59291 | 126 ft | 23 kts | 353° |
| 2026-04-21 06:30 | 40.08477 | 116.59265 | 125 ft | 23 kts | 353° |
| 2026-04-21 06:30 | 40.08639 | 116.59241 | 126 ft | 23 kts | 353° |
| 2026-04-21 06:31 | 40.08802 | 116.59213 | 126 ft | 23 kts | 352° |
| 2026-04-21 06:31 | 40.08954 | 116.59231 | 124 ft | 14 kts | 38° |
| 2026-04-21 06:31 | 40.08973 | 116.59356 | 128 ft | 16 kts | 109° |
| 2026-04-21 06:31 | 40.08897 | 116.59481 | 124 ft | 8 kts | 150° |
| 2026-04-21 06:32 | 40.08841 | 116.59501 | 125 ft | 9 kts | 174° |
| 2026-04-21 06:32 | 40.08697 | 116.59522 | 127 ft | 37 kts | 173° |
| 2026-04-21 06:32 | 40.08169 | 116.59604 | 127 ft | 119 kts | 173° |
| 2026-04-21 06:32 | 40.07088 | 116.59780 | 201 ft | 185 kts | 173° |
| 2026-04-21 06:33 | 40.05847 | 116.59975 | 1211 ft | 174 kts | 177° |
| 2026-04-21 06:33 | 40.04604 | 116.60160 | 1975 ft | 186 kts | 175° |
| 2026-04-21 06:33 | 40.03265 | 116.60364 | 2447 ft | 205 kts | 176° |
| 2026-04-21 06:33 | 40.01749 | 116.60598 | 2773 ft | 231 kts | 175° |
| 2026-04-21 06:34 | 40.00160 | 116.60846 | 3515 ft | 234 kts | 175° |
| 2026-04-21 06:34 | 39.98525 | 116.61093 | 4289 ft | 241 kts | 176° |
| 2026-04-21 06:34 | 39.96788 | 116.61358 | 4862 ft | 256 kts | 176° |
| 2026-04-21 06:34 | 39.94982 | 116.61645 | 5559 ft | 266 kts | 176° |
| 2026-04-21 06:35 | 39.93130 | 116.61935 | 6386 ft | 270 kts | 176° |
| 2026-04-21 06:35 | 39.91232 | 116.62235 | 7021 ft | 279 kts | 176° |
| 2026-04-21 06:35 | 39.89274 | 116.62542 | 7706 ft | 287 kts | 176° |
| 2026-04-21 06:35 | 39.87275 | 116.62854 | 8428 ft | 292 kts | 175° |
| 2026-04-21 06:36 | 39.85236 | 116.63177 | 9209 ft | 297 kts | 175° |
| 2026-04-21 06:36 | 39.83164 | 116.63507 | 9898 ft | 303 kts | 175° |
| 2026-04-21 06:36 | 39.81049 | 116.63829 | 10503 ft | 312 kts | 175° |
| 2026-04-21 06:36 | 39.79002 | 116.64136 | 10703 ft | 336 kts | 176° |
| 2026-04-21 06:37 | 39.76591 | 116.64498 | 10902 ft | 361 kts | 175° |
| 2026-04-21 06:37 | 39.74005 | 116.64893 | 11222 ft | 382 kts | 175° |
| 2026-04-21 06:37 | 39.71350 | 116.64936 | 11723 ft | 385 kts | 193° |
| 2026-04-21 06:37 | 39.68869 | 116.63685 | 12551 ft | 384 kts | 216° |
| 2026-04-21 06:38 | 39.66905 | 116.61395 | 13606 ft | 379 kts | 234° |
| 2026-04-21 06:38 | 39.65590 | 116.58452 | 14488 ft | 379 kts | 251° |
| 2026-04-21 06:38 | 39.65018 | 116.55141 | 15316 ft | 375 kts | 266° |
| 2026-04-21 06:38 | 39.64814 | 116.51727 | 15998 ft | 383 kts | 268° |
| 2026-04-21 06:39 | 39.64633 | 116.48270 | 16913 ft | 385 kts | 268° |
| 2026-04-21 06:39 | 39.64444 | 116.44798 | 17880 ft | 386 kts | 268° |
| 2026-04-21 06:39 | 39.64243 | 116.41308 | 18693 ft | 390 kts | 268° |
| 2026-04-21 06:39 | 39.64028 | 116.37790 | 19462 ft | 392 kts | 268° |
| 2026-04-21 06:40 | 39.63810 | 116.34357 | 20237 ft | 394 kts | 268° |
| 2026-04-21 06:40 | 39.63578 | 116.30798 | 21019 ft | 397 kts | 267° |
| 2026-04-21 06:40 | 39.63342 | 116.27216 | 21760 ft | 400 kts | 267° |
| 2026-04-21 06:40 | 39.63104 | 116.23615 | 22506 ft | 402 kts | 267° |
| 2026-04-21 06:41 | 39.62862 | 116.19986 | 23244 ft | 405 kts | 267° |
| 2026-04-21 06:41 | 39.62618 | 116.16333 | 23881 ft | 408 kts | 267° |
| 2026-04-21 06:41 | 39.62371 | 116.12663 | 24490 ft | 409 kts | 267° |
| 2026-04-21 06:41 | 39.62122 | 116.08982 | 25130 ft | 410 kts | 266° |
| 2026-04-21 06:42 | 39.61871 | 116.05284 | 25741 ft | 411 kts | 266° |
| 2026-04-21 06:42 | 39.61620 | 116.01590 | 26322 ft | 413 kts | 266° |
| 2026-04-21 06:42 | 39.61366 | 115.97871 | 26876 ft | 415 kts | 266° |
| 2026-04-21 06:42 | 39.61110 | 115.94134 | 27424 ft | 417 kts | 266° |
| 2026-04-21 06:43 | 39.60851 | 115.90387 | 27960 ft | 418 kts | 266° |
| 2026-04-21 06:43 | 39.60609 | 115.86627 | 28443 ft | 417 kts | 269° |
| 2026-04-21 06:43 | 39.60850 | 115.82866 | 28728 ft | 422 kts | 281° |
| 2026-04-21 06:43 | 39.61736 | 115.79221 | 29146 ft | 427 kts | 292° |
| 2026-04-21 06:44 | 39.63173 | 115.75831 | 29648 ft | 428 kts | 296° |
| 2026-04-21 06:44 | 39.64644 | 115.72464 | 30095 ft | 429 kts | 295° |
| 2026-04-21 06:44 | 39.66058 | 115.69116 | 30430 ft | 428 kts | 296° |
| 2026-04-21 06:44 | 39.67870 | 115.65939 | 30594 ft | 440 kts | 308° |
| 2026-04-21 06:45 | 39.70181 | 115.63357 | 30988 ft | 449 kts | 318° |
| 2026-04-21 06:45 | 39.72941 | 115.61372 | 31442 ft | 459 kts | 328° |
| 2026-04-21 06:45 | 39.75905 | 115.59787 | 31839 ft | 461 kts | 329° |
| 2026-04-21 06:45 | 39.78901 | 115.58238 | 31972 ft | 465 kts | 329° |
| 2026-04-21 06:46 | 39.81910 | 115.56655 | 32012 ft | 466 kts | 329° |
| 2026-04-21 06:46 | 39.87857 | 115.53416 | 32034 ft | 460 kts | 328° |
| 2026-04-21 06:47 | 39.93583 | 115.49937 | 32019 ft | 441 kts | 316° |
| 2026-04-21 06:47 | 39.95767 | 115.47260 | 32042 ft | 425 kts | 301° |
| 2026-04-21 06:47 | 39.97347 | 115.44054 | 32050 ft | 421 kts | 292° |
| 2026-04-21 06:48 | 39.99227 | 115.36877 | 32024 ft | 418 kts | 273° |
| 2026-04-21 06:48 | 39.99578 | 115.29269 | 32051 ft | 423 kts | 271° |
| 2026-04-21 06:49 | 39.99882 | 115.21579 | 32060 ft | 423 kts | 272° |
| 2026-04-21 06:49 | 40.00231 | 115.13987 | 32052 ft | 417 kts | 272° |
| 2026-04-21 06:50 | 40.00600 | 115.06448 | 32047 ft | 416 kts | 272° |
| 2026-04-21 06:50 | 40.00970 | 114.98922 | 32037 ft | 415 kts | 272° |
| 2026-04-21 06:51 | 40.01336 | 114.91418 | 32045 ft | 416 kts | 272° |
| 2026-04-21 06:51 | 40.01697 | 114.83911 | 32050 ft | 417 kts | 272° |
| 2026-04-21 06:52 | 40.02055 | 114.76336 | 32049 ft | 419 kts | 272° |
| 2026-04-21 06:52 | 40.02410 | 114.68728 | 32056 ft | 420 kts | 272° |
| 2026-04-21 06:53 | 40.02760 | 114.61117 | 32040 ft | 421 kts | 272° |
| 2026-04-21 06:53 | 40.03106 | 114.53495 | 32059 ft | 421 kts | 272° |
| 2026-04-21 06:54 | 40.03445 | 114.45907 | 32053 ft | 422 kts | 272° |
| 2026-04-21 06:54 | 40.03781 | 114.38259 | 32063 ft | 422 kts | 271° |
| 2026-04-21 06:55 | 40.04114 | 114.30605 | 32053 ft | 422 kts | 271° |
| 2026-04-21 06:55 | 40.04442 | 114.22953 | 32048 ft | 422 kts | 271° |
| 2026-04-21 06:56 | 40.05419 | 114.15393 | 32059 ft | 425 kts | 282° |
| 2026-04-21 06:56 | 40.06982 | 114.09281 | 32051 ft | 429 kts | 288° |
| 2026-04-21 06:57 | 40.09775 | 114.02350 | 32048 ft | 433 kts | 294° |
| 2026-04-21 06:57 | 40.12677 | 113.95471 | 32061 ft | 431 kts | 293° |
| 2026-04-21 06:58 | 40.15493 | 113.88547 | 32068 ft | 431 kts | 292° |
| 2026-04-21 06:58 | 40.18300 | 113.81621 | 32070 ft | 431 kts | 293° |
| 2026-04-21 06:59 | 40.21112 | 113.74693 | 32055 ft | 431 kts | 293° |
| 2026-04-21 06:59 | 40.23904 | 113.67808 | 32056 ft | 431 kts | 292° |
| 2026-04-21 07:00 | 40.26709 | 113.60885 | 32056 ft | 430 kts | 293° |
| 2026-04-21 07:00 | 40.29523 | 113.53966 | 32058 ft | 430 kts | 293° |
| 2026-04-21 07:01 | 40.32334 | 113.47038 | 32070 ft | 431 kts | 293° |
| 2026-04-21 07:01 | 40.36554 | 113.36602 | 32063 ft | 432 kts | 293° |
| 2026-04-21 07:02 | 40.39363 | 113.29633 | 32064 ft | 432 kts | 292° |
| 2026-04-21 07:02 | 40.42171 | 113.22649 | 32061 ft | 433 kts | 292° |
| 2026-04-21 07:03 | 40.44975 | 113.15660 | 32065 ft | 433 kts | 292° |
| 2026-04-21 07:03 | 40.47780 | 113.08654 | 32063 ft | 433 kts | 292° |
| 2026-04-21 07:04 | 40.50587 | 113.01647 | 32064 ft | 433 kts | 292° |
| 2026-04-21 07:04 | 40.53393 | 112.94629 | 32068 ft | 433 kts | 292° |
| 2026-04-21 07:05 | 40.56189 | 112.87621 | 32079 ft | 433 kts | 292° |
| 2026-04-21 07:05 | 40.58414 | 112.80328 | 32075 ft | 427 kts | 283° |
| 2026-04-21 07:06 | 40.59766 | 112.72745 | 32069 ft | 424 kts | 275° |
| 2026-04-21 07:06 | 40.60243 | 112.65028 | 32081 ft | 423 kts | 272° |
| 2026-04-21 07:07 | 40.60624 | 112.57286 | 32083 ft | 425 kts | 272° |
| 2026-04-21 07:07 | 40.61058 | 112.49523 | 32091 ft | 426 kts | 271° |
| 2026-04-21 07:08 | 40.61165 | 112.41724 | 32087 ft | 426 kts | 270° |
| 2026-04-21 07:08 | 40.61368 | 112.33915 | 32081 ft | 428 kts | 271° |
| 2026-04-21 07:09 | 40.61585 | 112.26098 | 32091 ft | 428 kts | 270° |
| 2026-04-21 07:09 | 40.61778 | 112.18256 | 32091 ft | 429 kts | 270° |
| 2026-04-21 07:10 | 40.61957 | 112.10467 | 32098 ft | 429 kts | 270° |
| 2026-04-21 07:10 | 40.62135 | 112.02618 | 32094 ft | 429 kts | 270° |
| 2026-04-21 07:11 | 40.62348 | 111.94765 | 32097 ft | 430 kts | 271° |
| 2026-04-21 07:11 | 40.62453 | 111.86905 | 32089 ft | 430 kts | 269° |
| 2026-04-21 07:12 | 40.62565 | 111.79034 | 32091 ft | 430 kts | 270° |
| 2026-04-21 07:12 | 40.62730 | 111.71152 | 32089 ft | 431 kts | 270° |
| 2026-04-21 07:13 | 40.62884 | 111.63264 | 32088 ft | 431 kts | 270° |
| 2026-04-21 07:13 | 40.63024 | 111.55367 | 32085 ft | 432 kts | 270° |
| 2026-04-21 07:14 | 40.63156 | 111.47465 | 32082 ft | 432 kts | 270° |
| 2026-04-21 07:14 | 40.63283 | 111.39548 | 32082 ft | 433 kts | 270° |
| 2026-04-21 07:15 | 40.63406 | 111.31629 | 32086 ft | 433 kts | 270° |
| 2026-04-21 07:15 | 40.63524 | 111.23696 | 32075 ft | 433 kts | 270° |
| 2026-04-21 07:16 | 40.63635 | 111.15817 | 32075 ft | 434 kts | 270° |
| 2026-04-21 07:16 | 40.63742 | 111.07876 | 32074 ft | 434 kts | 270° |
| 2026-04-21 07:17 | 40.63844 | 110.99935 | 32082 ft | 434 kts | 269° |
| 2026-04-21 07:17 | 40.63942 | 110.91973 | 32082 ft | 435 kts | 269° |
| 2026-04-21 07:18 | 40.64035 | 110.84016 | 32083 ft | 435 kts | 269° |
| 2026-04-21 07:18 | 40.64122 | 110.76051 | 32082 ft | 435 kts | 269° |
| 2026-04-21 07:19 | 40.64202 | 110.68088 | 32068 ft | 435 kts | 269° |
| 2026-04-21 07:19 | 40.64280 | 110.60126 | 32080 ft | 435 kts | 269° |
| 2026-04-21 07:20 | 40.64350 | 110.52158 | 32082 ft | 436 kts | 269° |
| 2026-04-21 07:20 | 40.64416 | 110.44182 | 32072 ft | 436 kts | 269° |
| 2026-04-21 07:21 | 40.64477 | 110.36198 | 32076 ft | 436 kts | 269° |
| 2026-04-21 07:21 | 40.64534 | 110.28217 | 32065 ft | 437 kts | 269° |
| 2026-04-21 07:22 | 40.64586 | 110.20209 | 32059 ft | 437 kts | 269° |
| 2026-04-21 07:22 | 40.64632 | 110.12194 | 32060 ft | 438 kts | 269° |
| 2026-04-21 07:23 | 40.64674 | 110.04172 | 32051 ft | 438 kts | 269° |
| 2026-04-21 07:23 | 40.64525 | 109.96162 | 32062 ft | 437 kts | 263° |
| 2026-04-21 07:24 | 40.63720 | 109.88228 | 32049 ft | 438 kts | 262° |
| 2026-04-21 07:24 | 40.62905 | 109.80277 | 32044 ft | 438 kts | 262° |
| 2026-04-21 07:25 | 40.62102 | 109.72329 | 32054 ft | 438 kts | 262° |
| 2026-04-21 07:25 | 40.61298 | 109.64374 | 32044 ft | 439 kts | 262° |
| 2026-04-21 07:26 | 40.60494 | 109.56463 | 32051 ft | 439 kts | 262° |
| 2026-04-21 07:26 | 40.59678 | 109.48491 | 32039 ft | 439 kts | 262° |
| 2026-04-21 07:27 | 40.58857 | 109.40524 | 32043 ft | 440 kts | 262° |
| 2026-04-21 07:27 | 40.58029 | 109.32551 | 32043 ft | 440 kts | 262° |
| 2026-04-21 07:28 | 40.57196 | 109.24580 | 32043 ft | 440 kts | 261° |
| 2026-04-21 07:28 | 40.56357 | 109.16607 | 32046 ft | 440 kts | 261° |
| 2026-04-21 07:29 | 40.55512 | 109.08633 | 32043 ft | 441 kts | 261° |
| 2026-04-21 07:29 | 40.54660 | 109.00644 | 32040 ft | 441 kts | 261° |
| 2026-04-21 07:30 | 40.53802 | 108.92656 | 32032 ft | 442 kts | 261° |
| 2026-04-21 07:30 | 40.52938 | 108.84660 | 32034 ft | 442 kts | 261° |
| 2026-04-21 07:31 | 40.52067 | 108.76658 | 32035 ft | 443 kts | 261° |
| 2026-04-21 07:31 | 40.51190 | 108.68648 | 32034 ft | 443 kts | 261° |
| 2026-04-21 07:32 | 40.50306 | 108.60628 | 32033 ft | 444 kts | 261° |
| 2026-04-21 07:32 | 40.49415 | 108.52599 | 32033 ft | 444 kts | 261° |
| 2026-04-21 07:33 | 40.48516 | 108.44557 | 32038 ft | 445 kts | 261° |
| 2026-04-21 07:33 | 40.47613 | 108.36520 | 32030 ft | 445 kts | 261° |
| 2026-04-21 07:34 | 40.46707 | 108.28516 | 32032 ft | 446 kts | 261° |
| 2026-04-21 07:34 | 40.45790 | 108.20457 | 32045 ft | 446 kts | 261° |
| 2026-04-21 07:35 | 40.44867 | 108.12394 | 32046 ft | 447 kts | 261° |
| 2026-04-21 07:35 | 40.43938 | 108.04332 | 32027 ft | 447 kts | 261° |
| 2026-04-21 07:36 | 40.43002 | 107.96264 | 32027 ft | 447 kts | 261° |
| 2026-04-21 07:36 | 40.42051 | 107.88193 | 32040 ft | 447 kts | 261° |
| 2026-04-21 07:37 | 40.41092 | 107.80135 | 32027 ft | 447 kts | 261° |
| 2026-04-21 07:37 | 40.40129 | 107.72074 | 32040 ft | 447 kts | 261° |
| 2026-04-21 07:38 | 40.39160 | 107.64009 | 32038 ft | 447 kts | 261° |
| 2026-04-21 07:38 | 40.38187 | 107.55950 | 32036 ft | 447 kts | 261° |
| 2026-04-21 07:39 | 40.37208 | 107.47896 | 32037 ft | 447 kts | 261° |
| 2026-04-21 07:39 | 40.36225 | 107.39854 | 32037 ft | 447 kts | 261° |
| 2026-04-21 07:40 | 40.35235 | 107.31810 | 32040 ft | 446 kts | 261° |
| 2026-04-21 07:40 | 40.34313 | 107.24351 | 32038 ft | 446 kts | 261° |
| 2026-04-21 07:41 | 40.33315 | 107.16326 | 32038 ft | 446 kts | 261° |
| 2026-04-21 07:41 | 40.32314 | 107.08314 | 32040 ft | 445 kts | 261° |
| 2026-04-21 07:42 | 40.31510 | 107.00281 | 32037 ft | 444 kts | 270° |
| 2026-04-21 07:42 | 40.32005 | 106.93588 | 32044 ft | 445 kts | 279° |
| 2026-04-21 07:43 | 40.33835 | 106.85838 | 32049 ft | 447 kts | 289° |
| 2026-04-21 07:43 | 40.36181 | 106.78280 | 32038 ft | 448 kts | 290° |
| 2026-04-21 07:44 | 40.38524 | 106.70710 | 32033 ft | 447 kts | 289° |
| 2026-04-21 07:44 | 40.40826 | 106.63132 | 32034 ft | 447 kts | 289° |
| 2026-04-21 07:45 | 40.43105 | 106.55550 | 32045 ft | 446 kts | 289° |
| 2026-04-21 07:45 | 40.45371 | 106.47972 | 32035 ft | 446 kts | 289° |
| 2026-04-21 07:46 | 40.47634 | 106.40386 | 32038 ft | 446 kts | 289° |
| 2026-04-21 07:46 | 40.49876 | 106.32852 | 32037 ft | 445 kts | 289° |
| 2026-04-21 07:47 | 40.52128 | 106.25267 | 32049 ft | 445 kts | 288° |
| 2026-04-21 07:47 | 40.54372 | 106.17681 | 32037 ft | 446 kts | 288° |
| 2026-04-21 07:48 | 40.56618 | 106.10069 | 32050 ft | 446 kts | 288° |
| 2026-04-21 07:48 | 40.58858 | 106.02457 | 32042 ft | 446 kts | 288° |
| 2026-04-21 07:49 | 40.61096 | 105.94828 | 32050 ft | 446 kts | 288° |
| 2026-04-21 07:49 | 40.63327 | 105.87202 | 32052 ft | 445 kts | 288° |
| 2026-04-21 07:50 | 40.65532 | 105.79640 | 32046 ft | 445 kts | 288° |
| 2026-04-21 07:50 | 40.67746 | 105.72026 | 32042 ft | 445 kts | 288° |
| 2026-04-21 07:51 | 40.69951 | 105.64423 | 32049 ft | 444 kts | 288° |
| 2026-04-21 07:51 | 40.72152 | 105.56811 | 32046 ft | 444 kts | 288° |
| 2026-04-21 07:52 | 40.74348 | 105.49193 | 32047 ft | 444 kts | 287° |
| 2026-04-21 07:52 | 40.76535 | 105.41583 | 32047 ft | 443 kts | 287° |
| 2026-04-21 07:53 | 40.78715 | 105.33976 | 32045 ft | 443 kts | 287° |
| 2026-04-21 07:53 | 40.80891 | 105.26362 | 32040 ft | 443 kts | 287° |
| 2026-04-21 07:54 | 40.83059 | 105.18751 | 32044 ft | 443 kts | 287° |
| 2026-04-21 07:54 | 40.85218 | 105.11149 | 32041 ft | 442 kts | 287° |
| 2026-04-21 07:55 | 40.87374 | 105.03535 | 32045 ft | 442 kts | 287° |
| 2026-04-21 07:55 | 40.89524 | 104.95923 | 32045 ft | 442 kts | 287° |
| 2026-04-21 07:56 | 40.91667 | 104.88308 | 32048 ft | 442 kts | 287° |
| 2026-04-21 07:56 | 40.93808 | 104.80678 | 32044 ft | 442 kts | 286° |
| 2026-04-21 07:57 | 40.95932 | 104.73089 | 32052 ft | 443 kts | 286° |
| 2026-04-21 07:57 | 40.98067 | 104.65436 | 32043 ft | 443 kts | 286° |
| 2026-04-21 07:58 | 41.00196 | 104.57782 | 32053 ft | 443 kts | 286° |
| 2026-04-21 07:58 | 41.02323 | 104.50114 | 32048 ft | 444 kts | 286° |
| 2026-04-21 07:59 | 41.04483 | 104.42448 | 32041 ft | 445 kts | 287° |
| 2026-04-21 07:59 | 41.06727 | 104.34798 | 32047 ft | 445 kts | 287° |
| 2026-04-21 08:00 | 41.08971 | 104.27143 | 32035 ft | 445 kts | 287° |
| 2026-04-21 08:00 | 41.11201 | 104.19476 | 32044 ft | 446 kts | 287° |
| 2026-04-21 08:01 | 41.13420 | 104.11804 | 32043 ft | 446 kts | 287° |
| 2026-04-21 08:02 | 41.16743 | 104.00265 | 32047 ft | 447 kts | 287° |
| 2026-04-21 08:02 | 41.18948 | 103.92580 | 32041 ft | 448 kts | 287° |
| 2026-04-21 08:03 | 41.21165 | 103.84828 | 32047 ft | 449 kts | 287° |
| 2026-04-21 08:03 | 41.23382 | 103.77056 | 32043 ft | 451 kts | 287° |
| 2026-04-21 08:04 | 41.25603 | 103.69243 | 32038 ft | 452 kts | 287° |
| 2026-04-21 08:04 | 41.27822 | 103.61416 | 32045 ft | 453 kts | 287° |
| 2026-04-21 08:05 | 41.30040 | 103.53568 | 32054 ft | 454 kts | 287° |
| 2026-04-21 08:05 | 41.32258 | 103.45695 | 32045 ft | 455 kts | 287° |
| 2026-04-21 08:06 | 41.34474 | 103.37806 | 32043 ft | 455 kts | 287° |
| 2026-04-21 08:06 | 41.36689 | 103.29895 | 32041 ft | 456 kts | 287° |
| 2026-04-21 08:07 | 41.38900 | 103.21974 | 32045 ft | 456 kts | 287° |
| 2026-04-21 08:07 | 41.41093 | 103.14092 | 32038 ft | 457 kts | 287° |
| 2026-04-21 08:08 | 41.43300 | 103.06134 | 32037 ft | 458 kts | 287° |
| 2026-04-21 08:08 | 41.45502 | 102.98165 | 32036 ft | 458 kts | 287° |
| 2026-04-21 08:09 | 41.47557 | 102.90122 | 32042 ft | 459 kts | 285° |
| 2026-04-21 08:09 | 41.49582 | 102.82048 | 32040 ft | 460 kts | 286° |
| 2026-04-21 08:10 | 41.51760 | 102.74015 | 32039 ft | 461 kts | 288° |
| 2026-04-21 08:10 | 41.54047 | 102.66012 | 32037 ft | 462 kts | 288° |
| 2026-04-21 08:11 | 41.56357 | 102.58010 | 32045 ft | 462 kts | 288° |
| 2026-04-21 08:11 | 41.58667 | 102.49982 | 32038 ft | 463 kts | 288° |
| 2026-04-21 08:12 | 41.60966 | 102.41949 | 32038 ft | 464 kts | 288° |
| 2026-04-21 08:12 | 41.63263 | 102.33887 | 32036 ft | 464 kts | 288° |
| 2026-04-21 08:13 | 41.65555 | 102.25815 | 32039 ft | 465 kts | 288° |
| 2026-04-21 08:13 | 41.67843 | 102.17731 | 32040 ft | 465 kts | 288° |
| 2026-04-21 08:14 | 41.70115 | 102.09680 | 32042 ft | 466 kts | 288° |
| 2026-04-21 08:14 | 41.72402 | 102.01550 | 32039 ft | 466 kts | 288° |
| 2026-04-21 08:15 | 41.74681 | 101.93422 | 32040 ft | 467 kts | 288° |
| 2026-04-21 08:15 | 41.76959 | 101.85272 | 32042 ft | 467 kts | 288° |
| 2026-04-21 08:16 | 41.79233 | 101.77110 | 32041 ft | 467 kts | 288° |
| 2026-04-21 08:16 | 41.81502 | 101.68936 | 32038 ft | 468 kts | 288° |
| 2026-04-21 08:17 | 41.83769 | 101.60747 | 32044 ft | 469 kts | 288° |
| 2026-04-21 08:17 | 41.86033 | 101.52539 | 32044 ft | 469 kts | 288° |
| 2026-04-21 08:18 | 41.88294 | 101.44315 | 32048 ft | 470 kts | 288° |
| 2026-04-21 08:18 | 41.90551 | 101.36079 | 32040 ft | 471 kts | 288° |
| 2026-04-21 08:19 | 41.92809 | 101.27812 | 32045 ft | 472 kts | 288° |
| 2026-04-21 08:19 | 41.95053 | 101.19571 | 32044 ft | 472 kts | 288° |
| 2026-04-21 08:20 | 41.97295 | 101.11275 | 32045 ft | 473 kts | 287° |
| 2026-04-21 08:20 | 41.98721 | 101.02690 | 32051 ft | 470 kts | 276° |
| 2026-04-21 08:21 | 41.99039 | 100.93921 | 32052 ft | 469 kts | 268° |
| 2026-04-21 08:21 | 41.98953 | 100.85155 | 32047 ft | 469 kts | 268° |
| 2026-04-21 08:22 | 41.98858 | 100.76388 | 32042 ft | 469 kts | 268° |
| 2026-04-21 08:22 | 41.98783 | 100.67622 | 32044 ft | 469 kts | 268° |
| 2026-04-21 08:23 | 41.98716 | 100.58855 | 32047 ft | 469 kts | 268° |
| 2026-04-21 08:23 | 41.98646 | 100.50146 | 32042 ft | 469 kts | 268° |
| 2026-04-21 08:24 | 41.98568 | 100.41381 | 32045 ft | 469 kts | 268° |
| 2026-04-21 08:24 | 41.98483 | 100.32628 | 32042 ft | 468 kts | 268° |
| 2026-04-21 08:25 | 41.98391 | 100.23875 | 32041 ft | 468 kts | 268° |
| 2026-04-21 08:25 | 41.98293 | 100.15123 | 32040 ft | 468 kts | 268° |
| 2026-04-21 08:26 | 41.98188 | 100.06369 | 32036 ft | 468 kts | 268° |
| 2026-04-21 08:26 | 41.98076 | 99.97612 | 32039 ft | 468 kts | 268° |
| 2026-04-21 08:27 | 41.97958 | 99.88912 | 32037 ft | 468 kts | 268° |
| 2026-04-21 08:27 | 41.97833 | 99.80159 | 32040 ft | 468 kts | 268° |
| 2026-04-21 08:28 | 41.97701 | 99.71396 | 32044 ft | 468 kts | 267° |
| 2026-04-21 08:28 | 41.97562 | 99.62634 | 32034 ft | 469 kts | 267° |
| 2026-04-21 08:29 | 41.97417 | 99.53872 | 32035 ft | 469 kts | 267° |
| 2026-04-21 08:29 | 41.97291 | 99.46581 | 32035 ft | 469 kts | 267° |
| 2026-04-21 08:30 | 41.97134 | 99.37804 | 32023 ft | 470 kts | 267° |
| 2026-04-21 08:30 | 41.96969 | 99.29025 | 32027 ft | 470 kts | 267° |
| 2026-04-21 08:31 | 41.96797 | 99.20228 | 32037 ft | 471 kts | 267° |
| 2026-04-21 08:31 | 41.96619 | 99.11423 | 32031 ft | 471 kts | 267° |
| 2026-04-21 08:32 | 41.96435 | 99.02667 | 32033 ft | 472 kts | 267° |
| 2026-04-21 08:32 | 41.96243 | 98.93842 | 32024 ft | 472 kts | 266° |
| 2026-04-21 08:33 | 41.96044 | 98.85023 | 32038 ft | 472 kts | 266° |
| 2026-04-21 08:33 | 41.95838 | 98.76198 | 32021 ft | 472 kts | 266° |
| 2026-04-21 08:34 | 41.95626 | 98.67370 | 32037 ft | 472 kts | 266° |
| 2026-04-21 08:34 | 41.95407 | 98.58556 | 32025 ft | 472 kts | 266° |
| 2026-04-21 08:35 | 41.95181 | 98.49742 | 32030 ft | 472 kts | 266° |
| 2026-04-21 08:35 | 41.94949 | 98.40940 | 32029 ft | 471 kts | 266° |
| 2026-04-21 08:36 | 41.94710 | 98.32148 | 32029 ft | 471 kts | 266° |
| 2026-04-21 08:36 | 41.94465 | 98.23366 | 32028 ft | 470 kts | 266° |
| 2026-04-21 08:37 | 41.94213 | 98.14591 | 32023 ft | 470 kts | 265° |
| 2026-04-21 08:37 | 41.93956 | 98.05878 | 32030 ft | 470 kts | 265° |
| 2026-04-21 08:38 | 41.93691 | 97.97106 | 32032 ft | 470 kts | 265° |
| 2026-04-21 08:38 | 41.93420 | 97.88338 | 32033 ft | 470 kts | 265° |
| 2026-04-21 08:39 | 41.93141 | 97.79559 | 32034 ft | 470 kts | 265° |
| 2026-04-21 08:39 | 41.92855 | 97.70764 | 32037 ft | 471 kts | 265° |
| 2026-04-21 08:40 | 41.92564 | 97.62019 | 32042 ft | 472 kts | 265° |
| 2026-04-21 08:40 | 41.92264 | 97.53196 | 32046 ft | 472 kts | 265° |
| 2026-04-21 08:41 | 41.91957 | 97.44379 | 32050 ft | 473 kts | 265° |
| 2026-04-21 08:41 | 41.91642 | 97.35543 | 32049 ft | 473 kts | 265° |
| 2026-04-21 08:42 | 41.91323 | 97.26738 | 32052 ft | 472 kts | 265° |
| 2026-04-21 08:42 | 41.90998 | 97.17992 | 32051 ft | 471 kts | 265° |
| 2026-04-21 08:43 | 41.90665 | 97.09211 | 32072 ft | 470 kts | 266° |
| 2026-04-21 08:43 | 41.90326 | 97.00441 | 32069 ft | 470 kts | 266° |
| 2026-04-21 08:44 | 41.89981 | 96.91679 | 32071 ft | 470 kts | 266° |
| 2026-04-21 08:44 | 41.89630 | 96.82927 | 32069 ft | 470 kts | 266° |
| 2026-04-21 08:45 | 41.89271 | 96.74175 | 32079 ft | 470 kts | 266° |
| 2026-04-21 08:45 | 41.88906 | 96.65406 | 32082 ft | 470 kts | 266° |
| 2026-04-21 08:46 | 41.88534 | 96.56641 | 32084 ft | 471 kts | 266° |
| 2026-04-21 08:46 | 41.88154 | 96.47849 | 32089 ft | 472 kts | 266° |
| 2026-04-21 08:47 | 41.87767 | 96.39036 | 32096 ft | 474 kts | 266° |
| 2026-04-21 08:47 | 41.87373 | 96.30204 | 32096 ft | 475 kts | 266° |
| 2026-04-21 08:48 | 41.87044 | 96.21346 | 32093 ft | 475 kts | 269° |
| 2026-04-21 08:48 | 41.86995 | 96.12527 | 32096 ft | 476 kts | 270° |
| 2026-04-21 08:49 | 41.86981 | 96.03625 | 32088 ft | 478 kts | 270° |
| 2026-04-21 08:49 | 41.86940 | 95.94703 | 32086 ft | 479 kts | 270° |
| 2026-04-21 08:50 | 41.86878 | 95.85769 | 32087 ft | 480 kts | 270° |
| 2026-04-21 08:50 | 41.86806 | 95.76807 | 32081 ft | 480 kts | 270° |
| 2026-04-21 08:51 | 41.86729 | 95.67832 | 32071 ft | 481 kts | 270° |
| 2026-04-21 08:51 | 41.86645 | 95.58839 | 32072 ft | 482 kts | 270° |
| 2026-04-21 08:52 | 41.86553 | 95.49838 | 32058 ft | 483 kts | 270° |
| 2026-04-21 08:52 | 41.86455 | 95.40832 | 32064 ft | 483 kts | 270° |
| 2026-04-21 08:53 | 41.86351 | 95.31807 | 32048 ft | 484 kts | 270° |
| 2026-04-21 08:53 | 41.86619 | 95.22834 | 32050 ft | 479 kts | 285° |
| 2026-04-21 08:53 | 41.87699 | 95.18624 | 32056 ft | 478 kts | 296° |
| 2026-04-21 08:54 | 41.89375 | 95.14780 | 32041 ft | 477 kts | 309° |
| 2026-04-21 08:54 | 41.93716 | 95.08185 | 32044 ft | 476 kts | 314° |
| 2026-04-21 08:55 | 41.98166 | 95.01566 | 32036 ft | 479 kts | 313° |
| 2026-04-21 08:55 | 42.02592 | 94.94860 | 32031 ft | 480 kts | 313° |
| 2026-04-21 08:56 | 42.07001 | 94.88099 | 32031 ft | 480 kts | 313° |
| 2026-04-21 08:56 | 42.11394 | 94.81332 | 32031 ft | 480 kts | 313° |
| 2026-04-21 08:57 | 42.15787 | 94.74551 | 32024 ft | 480 kts | 313° |
| 2026-04-21 08:57 | 42.20171 | 94.67772 | 32020 ft | 479 kts | 313° |
| 2026-04-21 08:58 | 42.24550 | 94.60986 | 32025 ft | 479 kts | 313° |
| 2026-04-21 08:58 | 42.28901 | 94.54229 | 32022 ft | 480 kts | 313° |
| 2026-04-21 08:59 | 42.33277 | 94.47418 | 32024 ft | 480 kts | 313° |
| 2026-04-21 08:59 | 42.37650 | 94.40595 | 32029 ft | 480 kts | 313° |
| 2026-04-21 09:00 | 42.42023 | 94.33756 | 32032 ft | 480 kts | 313° |
| 2026-04-21 09:00 | 42.46391 | 94.26909 | 32035 ft | 480 kts | 313° |
| 2026-04-21 09:01 | 42.50753 | 94.20055 | 32035 ft | 480 kts | 313° |
| 2026-04-21 09:01 | 42.55114 | 94.13188 | 32040 ft | 481 kts | 313° |
| 2026-04-21 09:02 | 42.59476 | 94.06302 | 32044 ft | 481 kts | 313° |
| 2026-04-21 09:02 | 42.63834 | 93.99406 | 32043 ft | 481 kts | 313° |
| 2026-04-21 09:03 | 42.70366 | 93.89041 | 32046 ft | 481 kts | 313° |
| 2026-04-21 09:03 | 42.74716 | 93.82116 | 32046 ft | 481 kts | 313° |
| 2026-04-21 09:04 | 42.79034 | 93.75227 | 32041 ft | 481 kts | 313° |
| 2026-04-21 09:04 | 42.83147 | 93.68023 | 32051 ft | 484 kts | 304° |
| 2026-04-21 09:05 | 42.86161 | 93.59791 | 32048 ft | 488 kts | 292° |
| 2026-04-21 09:05 | 42.88350 | 93.51020 | 32045 ft | 489 kts | 290° |
| 2026-04-21 09:06 | 42.90478 | 93.42210 | 32045 ft | 489 kts | 290° |
| 2026-04-21 09:06 | 42.92631 | 93.33405 | 32041 ft | 489 kts | 290° |
| 2026-04-21 09:07 | 42.94800 | 93.24613 | 32053 ft | 488 kts | 290° |
| 2026-04-21 09:07 | 42.96954 | 93.15884 | 32049 ft | 488 kts | 290° |
| 2026-04-21 09:08 | 42.99114 | 93.07092 | 32059 ft | 488 kts | 290° |
| 2026-04-21 09:08 | 43.01265 | 92.98301 | 32051 ft | 488 kts | 290° |
| 2026-04-21 09:09 | 43.03410 | 92.89500 | 32061 ft | 488 kts | 290° |
| 2026-04-21 09:09 | 43.05544 | 92.80705 | 32050 ft | 487 kts | 290° |
| 2026-04-21 09:10 | 43.07670 | 92.71911 | 32057 ft | 487 kts | 290° |
| 2026-04-21 09:10 | 43.09788 | 92.63116 | 32060 ft | 486 kts | 290° |
| 2026-04-21 09:11 | 43.11897 | 92.54324 | 32059 ft | 486 kts | 290° |
| 2026-04-21 09:11 | 43.13999 | 92.45529 | 32061 ft | 486 kts | 290° |
| 2026-04-21 09:12 | 43.16081 | 92.36787 | 32072 ft | 485 kts | 290° |
| 2026-04-21 09:12 | 43.18165 | 92.27996 | 32072 ft | 485 kts | 290° |
| 2026-04-21 09:13 | 43.20243 | 92.19194 | 32071 ft | 485 kts | 290° |
| 2026-04-21 09:13 | 43.22317 | 92.10378 | 32074 ft | 485 kts | 290° |
| 2026-04-21 09:14 | 43.24380 | 92.01575 | 32073 ft | 485 kts | 290° |
| 2026-04-21 09:14 | 43.26437 | 91.92765 | 32074 ft | 485 kts | 289° |
| 2026-04-21 09:15 | 43.28484 | 91.83958 | 32076 ft | 485 kts | 289° |
| 2026-04-21 09:15 | 43.30527 | 91.75138 | 32073 ft | 484 kts | 289° |
| 2026-04-21 09:16 | 43.32548 | 91.66377 | 32079 ft | 484 kts | 289° |
| 2026-04-21 09:16 | 43.34574 | 91.57555 | 32071 ft | 484 kts | 289° |
| 2026-04-21 09:17 | 43.36590 | 91.48742 | 32084 ft | 484 kts | 289° |
| 2026-04-21 09:17 | 43.38602 | 91.39914 | 32082 ft | 483 kts | 289° |
| 2026-04-21 09:18 | 43.40602 | 91.31106 | 32097 ft | 483 kts | 289° |
| 2026-04-21 09:18 | 43.42262 | 91.23764 | 32084 ft | 482 kts | 289° |
| 2026-04-21 09:19 | 43.44247 | 91.14947 | 32099 ft | 481 kts | 289° |
| 2026-04-21 09:19 | 43.46225 | 91.06135 | 32107 ft | 481 kts | 289° |
| 2026-04-21 09:20 | 43.48191 | 90.97335 | 32111 ft | 481 kts | 289° |
| 2026-04-21 09:20 | 43.50150 | 90.88536 | 32124 ft | 480 kts | 289° |
| 2026-04-21 09:21 | 43.52102 | 90.79726 | 32118 ft | 480 kts | 289° |
| 2026-04-21 09:21 | 43.54041 | 90.70939 | 32134 ft | 479 kts | 289° |
| 2026-04-21 09:22 | 43.55961 | 90.62207 | 32140 ft | 479 kts | 288° |
| 2026-04-21 09:22 | 43.57887 | 90.53410 | 32142 ft | 478 kts | 288° |
| 2026-04-21 09:23 | 43.59800 | 90.44630 | 32148 ft | 477 kts | 288° |
| 2026-04-21 09:23 | 43.61704 | 90.35865 | 32156 ft | 477 kts | 288° |
| 2026-04-21 09:24 | 43.63601 | 90.27090 | 32160 ft | 477 kts | 288° |
| 2026-04-21 09:24 | 43.65493 | 90.18302 | 32148 ft | 477 kts | 288° |
| 2026-04-21 09:25 | 43.67364 | 90.09578 | 32156 ft | 476 kts | 288° |
| 2026-04-21 09:25 | 43.69302 | 90.00819 | 32153 ft | 476 kts | 289° |
| 2026-04-21 09:26 | 43.71305 | 89.92105 | 32148 ft | 476 kts | 289° |
| 2026-04-21 09:26 | 43.73298 | 89.83370 | 32152 ft | 476 kts | 289° |
| 2026-04-21 09:27 | 43.75269 | 89.74637 | 32151 ft | 476 kts | 289° |
| 2026-04-21 09:27 | 43.77234 | 89.65878 | 32151 ft | 477 kts | 289° |
| 2026-04-21 09:28 | 43.79196 | 89.57106 | 32160 ft | 477 kts | 289° |
| 2026-04-21 09:28 | 43.81166 | 89.48326 | 32151 ft | 478 kts | 290° |
| 2026-04-21 09:29 | 43.83204 | 89.39574 | 32155 ft | 478 kts | 290° |
| 2026-04-21 09:29 | 43.85251 | 89.30811 | 32153 ft | 478 kts | 290° |
| 2026-04-21 09:30 | 43.87270 | 89.22091 | 32155 ft | 478 kts | 290° |
| 2026-04-21 09:30 | 43.89287 | 89.13317 | 32159 ft | 477 kts | 290° |
| 2026-04-21 09:31 | 43.91295 | 89.04544 | 32162 ft | 477 kts | 290° |
| 2026-04-21 09:31 | 43.93297 | 88.95763 | 32166 ft | 477 kts | 290° |
| 2026-04-21 09:32 | 43.95294 | 88.86974 | 32164 ft | 477 kts | 290° |
| 2026-04-21 09:32 | 43.97285 | 88.78268 | 32164 ft | 476 kts | 291° |
| 2026-04-21 09:33 | 43.99474 | 88.69612 | 32175 ft | 475 kts | 293° |
| 2026-04-21 09:33 | 44.01702 | 88.60981 | 32167 ft | 475 kts | 292° |
| 2026-04-21 09:34 | 44.03899 | 88.52326 | 32167 ft | 474 kts | 292° |
| 2026-04-21 09:34 | 44.06065 | 88.43682 | 32170 ft | 473 kts | 292° |
| 2026-04-21 09:35 | 44.08219 | 88.35042 | 32170 ft | 472 kts | 292° |
| 2026-04-21 09:35 | 44.10365 | 88.26411 | 32158 ft | 472 kts | 292° |
| 2026-04-21 09:36 | 44.12502 | 88.17788 | 32158 ft | 471 kts | 292° |
| 2026-04-21 09:36 | 44.14630 | 88.09168 | 32149 ft | 470 kts | 292° |
| 2026-04-21 09:37 | 44.16926 | 88.00674 | 32149 ft | 466 kts | 298° |
| 2026-04-21 09:37 | 44.20146 | 87.92891 | 32123 ft | 462 kts | 308° |
| 2026-04-21 09:38 | 44.24024 | 87.85773 | 32129 ft | 461 kts | 310° |
| 2026-04-21 09:38 | 44.27897 | 87.78712 | 32130 ft | 461 kts | 309° |
| 2026-04-21 09:39 | 44.31760 | 87.71558 | 32126 ft | 461 kts | 309° |
| 2026-04-21 09:39 | 44.35633 | 87.64403 | 32127 ft | 461 kts | 310° |
| 2026-04-21 09:40 | 44.39552 | 87.57302 | 32128 ft | 461 kts | 310° |
| 2026-04-21 09:40 | 44.43462 | 87.50202 | 32122 ft | 461 kts | 309° |
| 2026-04-21 09:41 | 44.47355 | 87.43093 | 32126 ft | 460 kts | 309° |
| 2026-04-21 09:41 | 44.51243 | 87.35969 | 32119 ft | 460 kts | 309° |
| 2026-04-21 09:42 | 44.55127 | 87.28839 | 32123 ft | 459 kts | 309° |
| 2026-04-21 09:42 | 44.59112 | 87.21846 | 32115 ft | 459 kts | 311° |
| 2026-04-21 09:43 | 44.63145 | 87.14977 | 32120 ft | 459 kts | 311° |
| 2026-04-21 09:43 | 44.67180 | 87.08022 | 32113 ft | 459 kts | 310° |
| 2026-04-21 09:44 | 44.71200 | 87.01044 | 32115 ft | 458 kts | 310° |
| 2026-04-21 09:44 | 44.75209 | 86.94081 | 32114 ft | 458 kts | 310° |
| 2026-04-21 09:45 | 44.79222 | 86.87110 | 32113 ft | 458 kts | 310° |
| 2026-04-21 09:45 | 44.83225 | 86.80137 | 32109 ft | 458 kts | 310° |
| 2026-04-21 09:46 | 44.87169 | 86.73169 | 32111 ft | 457 kts | 309° |
| 2026-04-21 09:46 | 44.91113 | 86.66121 | 32105 ft | 457 kts | 309° |
| 2026-04-21 09:47 | 44.95044 | 86.59082 | 32106 ft | 457 kts | 309° |
| 2026-04-21 09:47 | 44.98973 | 86.52041 | 32104 ft | 456 kts | 309° |
| 2026-04-21 09:48 | 45.02896 | 86.44998 | 32099 ft | 456 kts | 309° |
| 2026-04-21 09:48 | 45.06815 | 86.37945 | 32103 ft | 456 kts | 309° |
| 2026-04-21 09:49 | 45.10729 | 86.30884 | 32100 ft | 456 kts | 309° |
| 2026-04-21 09:49 | 45.14639 | 86.23810 | 32099 ft | 456 kts | 309° |
| 2026-04-21 09:50 | 45.17224 | 86.19123 | 32096 ft | 455 kts | 309° |
| 2026-04-21 09:50 | 45.22444 | 86.09639 | 32095 ft | 455 kts | 309° |
| 2026-04-21 09:51 | 45.26331 | 86.02555 | 32094 ft | 455 kts | 308° |
| 2026-04-21 09:51 | 45.30193 | 85.95500 | 32093 ft | 455 kts | 308° |
| 2026-04-21 09:52 | 45.34074 | 85.88392 | 32091 ft | 455 kts | 308° |
| 2026-04-21 09:52 | 45.37946 | 85.81283 | 32092 ft | 455 kts | 308° |
| 2026-04-21 09:53 | 45.41820 | 85.74152 | 32092 ft | 455 kts | 308° |
| 2026-04-21 09:53 | 45.45682 | 85.67024 | 32091 ft | 455 kts | 308° |
| 2026-04-21 09:54 | 45.49540 | 85.59887 | 32089 ft | 455 kts | 308° |
| 2026-04-21 09:54 | 45.53395 | 85.52737 | 32090 ft | 455 kts | 308° |
| 2026-04-21 09:55 | 45.57245 | 85.45577 | 32089 ft | 455 kts | 307° |
| 2026-04-21 09:55 | 45.61092 | 85.38405 | 32088 ft | 455 kts | 307° |
| 2026-04-21 09:56 | 45.64935 | 85.31223 | 32092 ft | 455 kts | 307° |
| 2026-04-21 09:56 | 45.68778 | 85.24023 | 32092 ft | 455 kts | 307° |
| 2026-04-21 09:57 | 45.72629 | 85.16813 | 32090 ft | 456 kts | 307° |
| 2026-04-21 09:57 | 45.76455 | 85.09670 | 32091 ft | 456 kts | 307° |
| 2026-04-21 09:58 | 45.80320 | 85.02435 | 32096 ft | 456 kts | 307° |
| 2026-04-21 09:58 | 45.84166 | 84.95209 | 32095 ft | 457 kts | 307° |
| 2026-04-21 09:59 | 45.88014 | 84.87961 | 32090 ft | 457 kts | 307° |
| 2026-04-21 09:59 | 45.91868 | 84.80681 | 32091 ft | 457 kts | 307° |
| 2026-04-21 10:00 | 45.95713 | 84.73402 | 32087 ft | 457 kts | 307° |
| 2026-04-21 10:00 | 45.99547 | 84.66122 | 32100 ft | 457 kts | 307° |
| 2026-04-21 10:01 | 46.03385 | 84.58817 | 32086 ft | 457 kts | 307° |
| 2026-04-21 10:01 | 46.07206 | 84.51526 | 32091 ft | 457 kts | 307° |
| 2026-04-21 10:02 | 46.12940 | 84.40545 | 32086 ft | 456 kts | 307° |
| 2026-04-21 10:03 | 46.16752 | 84.33223 | 32081 ft | 456 kts | 307° |
| 2026-04-21 10:03 | 46.20559 | 84.25891 | 32083 ft | 456 kts | 307° |
| 2026-04-21 10:04 | 46.24332 | 84.18607 | 32077 ft | 455 kts | 308° |
| 2026-04-21 10:04 | 46.28112 | 84.11282 | 32069 ft | 455 kts | 307° |
| 2026-04-21 10:05 | 46.31879 | 84.03926 | 32072 ft | 455 kts | 307° |
| 2026-04-21 10:05 | 46.35646 | 83.96548 | 32049 ft | 456 kts | 307° |
| 2026-04-21 10:06 | 46.38800 | 83.90354 | 32040 ft | 456 kts | 307° |
| 2026-04-21 10:06 | 46.42535 | 83.83008 | 32029 ft | 456 kts | 307° |
| 2026-04-21 10:07 | 46.46288 | 83.75607 | 32022 ft | 455 kts | 307° |
| 2026-04-21 10:07 | 46.50034 | 83.68199 | 32018 ft | 455 kts | 307° |
| 2026-04-21 10:08 | 46.53775 | 83.60781 | 32025 ft | 455 kts | 307° |
| 2026-04-21 10:08 | 46.57509 | 83.53358 | 32021 ft | 455 kts | 306° |
| 2026-04-21 10:09 | 46.61240 | 83.45921 | 32026 ft | 455 kts | 306° |
| 2026-04-21 10:09 | 46.64968 | 83.38473 | 32022 ft | 456 kts | 306° |
| 2026-04-21 10:10 | 46.68476 | 83.30787 | 32028 ft | 456 kts | 302° |
| 2026-04-21 10:10 | 46.71837 | 83.22946 | 32026 ft | 456 kts | 302° |
| 2026-04-21 10:11 | 46.75185 | 83.15145 | 32029 ft | 456 kts | 302° |
| 2026-04-21 10:11 | 46.78562 | 83.07305 | 32023 ft | 456 kts | 302° |
| 2026-04-21 10:12 | 46.81937 | 82.99458 | 32036 ft | 456 kts | 302° |
| 2026-04-21 10:12 | 46.85093 | 82.91427 | 32027 ft | 456 kts | 294° |
| 2026-04-21 10:13 | 46.87129 | 82.82648 | 32043 ft | 457 kts | 284° |
| 2026-04-21 10:13 | 46.88170 | 82.73465 | 32042 ft | 458 kts | 279° |
| 2026-04-21 10:14 | 46.89053 | 82.64279 | 32044 ft | 459 kts | 279° |
| 2026-04-21 10:14 | 46.89961 | 82.55041 | 32038 ft | 459 kts | 279° |
| 2026-04-21 10:15 | 46.90890 | 82.45793 | 32046 ft | 460 kts | 279° |
| 2026-04-21 10:15 | 46.91818 | 82.36535 | 32040 ft | 460 kts | 279° |
| 2026-04-21 10:16 | 46.92739 | 82.27270 | 32042 ft | 460 kts | 279° |
| 2026-04-21 10:16 | 46.93650 | 82.18006 | 32026 ft | 460 kts | 279° |
| 2026-04-21 10:17 | 46.94554 | 82.08743 | 32034 ft | 460 kts | 279° |
| 2026-04-21 10:17 | 46.95452 | 81.99463 | 32020 ft | 461 kts | 279° |
| 2026-04-21 10:18 | 46.96342 | 81.90163 | 32028 ft | 461 kts | 279° |
| 2026-04-21 10:18 | 46.97210 | 81.80859 | 32020 ft | 462 kts | 279° |
| 2026-04-21 10:19 | 46.98068 | 81.71541 | 32024 ft | 462 kts | 279° |
| 2026-04-21 10:19 | 46.98922 | 81.62203 | 32021 ft | 462 kts | 278° |
| 2026-04-21 10:20 | 46.99770 | 81.52863 | 32019 ft | 463 kts | 278° |
| 2026-04-21 10:20 | 47.00606 | 81.43565 | 32017 ft | 463 kts | 278° |
| 2026-04-21 10:21 | 47.01440 | 81.34204 | 32016 ft | 463 kts | 278° |
| 2026-04-21 10:21 | 47.02268 | 81.24823 | 32023 ft | 464 kts | 278° |
| 2026-04-21 10:22 | 47.03089 | 81.15439 | 32029 ft | 464 kts | 278° |
| 2026-04-21 10:22 | 47.03746 | 81.06021 | 32010 ft | 466 kts | 271° |
| 2026-04-21 10:23 | 47.02773 | 80.96614 | 32025 ft | 471 kts | 256° |
| 2026-04-21 10:23 | 47.00292 | 80.87686 | 32025 ft | 474 kts | 248° |
| 2026-04-21 10:24 | 46.97553 | 80.78950 | 32029 ft | 475 kts | 248° |
| 2026-04-21 10:24 | 46.94811 | 80.70135 | 32000 ft | 476 kts | 248° |
| 2026-04-21 10:25 | 46.92096 | 80.61296 | 32003 ft | 476 kts | 248° |
| 2026-04-21 10:25 | 46.89387 | 80.52453 | 32001 ft | 477 kts | 248° |
| 2026-04-21 10:26 | 46.86664 | 80.43596 | 32016 ft | 477 kts | 248° |
| 2026-04-21 10:26 | 46.83937 | 80.34760 | 31995 ft | 478 kts | 248° |
| 2026-04-21 10:27 | 46.81198 | 80.25923 | 31998 ft | 478 kts | 248° |
| 2026-04-21 10:27 | 46.78452 | 80.17091 | 31993 ft | 478 kts | 248° |
| 2026-04-21 10:28 | 46.75693 | 80.08251 | 32015 ft | 478 kts | 248° |
| 2026-04-21 10:28 | 46.72930 | 79.99428 | 31997 ft | 479 kts | 248° |
| 2026-04-21 10:29 | 46.70172 | 79.90651 | 32018 ft | 479 kts | 247° |
| 2026-04-21 10:29 | 46.67388 | 79.81824 | 32023 ft | 480 kts | 247° |
| 2026-04-21 10:30 | 46.64592 | 79.72988 | 32018 ft | 480 kts | 247° |
| 2026-04-21 10:30 | 46.61787 | 79.64155 | 31995 ft | 481 kts | 247° |
| 2026-04-21 10:31 | 46.58973 | 79.55322 | 32006 ft | 482 kts | 247° |
| 2026-04-21 10:31 | 46.56151 | 79.46494 | 32003 ft | 482 kts | 247° |
| 2026-04-21 10:32 | 46.53319 | 79.37667 | 32013 ft | 482 kts | 247° |
| 2026-04-21 10:32 | 46.50476 | 79.28837 | 32011 ft | 483 kts | 247° |
| 2026-04-21 10:33 | 46.47624 | 79.20009 | 32020 ft | 483 kts | 247° |
| 2026-04-21 10:33 | 46.44760 | 79.11173 | 32018 ft | 484 kts | 247° |
| 2026-04-21 10:34 | 46.41888 | 79.02342 | 32042 ft | 484 kts | 247° |
| 2026-04-21 10:34 | 46.39006 | 78.93507 | 32020 ft | 485 kts | 246° |
| 2026-04-21 10:35 | 46.36118 | 78.84688 | 32030 ft | 485 kts | 246° |
| 2026-04-21 10:35 | 46.33238 | 78.75918 | 32023 ft | 485 kts | 246° |
| 2026-04-21 10:36 | 46.30321 | 78.67043 | 32034 ft | 485 kts | 248° |
| 2026-04-21 10:36 | 46.27816 | 78.58021 | 32033 ft | 483 kts | 251° |
| 2026-04-21 10:37 | 46.25419 | 78.48934 | 32031 ft | 484 kts | 251° |
| 2026-04-21 10:37 | 46.23023 | 78.39923 | 32022 ft | 484 kts | 251° |
| 2026-04-21 10:38 | 46.20588 | 78.30864 | 32033 ft | 484 kts | 251° |
| 2026-04-21 10:38 | 46.18133 | 78.21801 | 32023 ft | 485 kts | 251° |
| 2026-04-21 10:39 | 46.15668 | 78.12733 | 32031 ft | 485 kts | 251° |
| 2026-04-21 10:39 | 46.13193 | 78.03658 | 32020 ft | 486 kts | 251° |
| 2026-04-21 10:39 | 46.11954 | 77.99128 | 31867 ft | 486 kts | 248° |
| 2026-04-21 10:40 | 46.10736 | 77.94674 | 31929 ft | 467 kts | 248° |
| 2026-04-21 10:40 | 46.09559 | 77.90384 | 31953 ft | 456 kts | 248° |
| 2026-04-21 10:40 | 46.08388 | 77.86134 | 32010 ft | 458 kts | 248° |
| 2026-04-21 10:41 | 46.06030 | 77.77589 | 32021 ft | 465 kts | 248° |
| 2026-04-21 10:41 | 46.03625 | 77.68905 | 32016 ft | 464 kts | 248° |
| 2026-04-21 10:42 | 46.01248 | 77.60345 | 32012 ft | 463 kts | 247° |
| 2026-04-21 10:42 | 45.98852 | 77.51746 | 32017 ft | 462 kts | 247° |
| 2026-04-21 10:43 | 45.96456 | 77.43180 | 32013 ft | 462 kts | 247° |
| 2026-04-21 10:43 | 45.94053 | 77.34622 | 32013 ft | 461 kts | 247° |
| 2026-04-21 10:44 | 45.91645 | 77.26071 | 32015 ft | 461 kts | 247° |
| 2026-04-21 10:44 | 45.89232 | 77.17538 | 32016 ft | 461 kts | 247° |
| 2026-04-21 10:45 | 45.86814 | 77.09013 | 32012 ft | 461 kts | 247° |
| 2026-04-21 10:45 | 45.84402 | 77.00541 | 32013 ft | 462 kts | 247° |
| 2026-04-21 10:46 | 45.81968 | 76.92022 | 32018 ft | 462 kts | 247° |
| 2026-04-21 10:46 | 45.79521 | 76.83484 | 32018 ft | 463 kts | 247° |
| 2026-04-21 10:47 | 45.77067 | 76.74952 | 32017 ft | 463 kts | 246° |
| 2026-04-21 10:47 | 45.74606 | 76.66426 | 32016 ft | 464 kts | 246° |
| 2026-04-21 10:48 | 45.72135 | 76.57896 | 32012 ft | 464 kts | 246° |
| 2026-04-21 10:48 | 45.69655 | 76.49362 | 32014 ft | 465 kts | 246° |
| 2026-04-21 10:49 | 45.67181 | 76.40880 | 32017 ft | 465 kts | 246° |
| 2026-04-21 10:49 | 45.64688 | 76.32360 | 32186 ft | 463 kts | 246° |
| 2026-04-21 10:49 | 45.63440 | 76.28106 | 32383 ft | 463 kts | 246° |
| 2026-04-21 10:50 | 45.62618 | 76.25307 | 32581 ft | 462 kts | 246° |
| 2026-04-21 10:50 | 45.60958 | 76.19668 | 33131 ft | 458 kts | 246° |
| 2026-04-21 10:50 | 45.59721 | 76.15472 | 33559 ft | 457 kts | 246° |
| 2026-04-21 10:50 | 45.58488 | 76.11299 | 33865 ft | 458 kts | 246° |
| 2026-04-21 10:51 | 45.57240 | 76.07083 | 33891 ft | 462 kts | 246° |
| 2026-04-21 10:51 | 45.54743 | 75.98661 | 33900 ft | 459 kts | 245° |
| 2026-04-21 10:52 | 45.52254 | 75.90297 | 33912 ft | 457 kts | 245° |
| 2026-04-21 10:52 | 45.49781 | 75.82015 | 33910 ft | 456 kts | 245° |
| 2026-04-21 10:53 | 45.47287 | 75.73692 | 33906 ft | 457 kts | 245° |
| 2026-04-21 10:53 | 45.44786 | 75.65371 | 33900 ft | 458 kts | 245° |
| 2026-04-21 10:54 | 45.42272 | 75.57035 | 33905 ft | 458 kts | 245° |
| 2026-04-21 10:54 | 45.39749 | 75.48696 | 33904 ft | 459 kts | 245° |
| 2026-04-21 10:55 | 45.37215 | 75.40350 | 33906 ft | 459 kts | 245° |
| 2026-04-21 10:55 | 45.34678 | 75.32019 | 33907 ft | 459 kts | 245° |
| 2026-04-21 10:56 | 45.32562 | 75.25089 | 33904 ft | 459 kts | 245° |
| 2026-04-21 10:56 | 45.30011 | 75.16765 | 33900 ft | 459 kts | 245° |
| 2026-04-21 10:57 | 45.27393 | 75.08506 | 33901 ft | 458 kts | 244° |
| 2026-04-21 10:57 | 45.24764 | 75.00347 | 33903 ft | 456 kts | 244° |
| 2026-04-21 10:58 | 45.22132 | 74.92180 | 33901 ft | 455 kts | 244° |
| 2026-04-21 10:58 | 45.19509 | 74.84035 | 33900 ft | 453 kts | 244° |
| 2026-04-21 10:59 | 45.16887 | 74.75917 | 33898 ft | 452 kts | 245° |
| 2026-04-21 10:59 | 45.14273 | 74.67844 | 33898 ft | 450 kts | 245° |
| 2026-04-21 11:00 | 45.11660 | 74.59802 | 33900 ft | 449 kts | 245° |
| 2026-04-21 11:00 | 45.09050 | 74.51795 | 33899 ft | 447 kts | 245° |
| 2026-04-21 11:01 | 45.06441 | 74.43814 | 33900 ft | 446 kts | 245° |
| 2026-04-21 11:01 | 45.03829 | 74.35847 | 33897 ft | 446 kts | 245° |
| 2026-04-21 11:02 | 44.99935 | 74.23972 | 33899 ft | 446 kts | 246° |
| 2026-04-21 11:02 | 44.98003 | 74.16769 | 33911 ft | 446 kts | 250° |
| 2026-04-21 11:03 | 44.95908 | 74.08524 | 33900 ft | 447 kts | 250° |
| 2026-04-21 11:03 | 44.93793 | 74.00270 | 33900 ft | 447 kts | 250° |
| 2026-04-21 11:04 | 44.91663 | 73.92033 | 33895 ft | 446 kts | 250° |
| 2026-04-21 11:04 | 44.89531 | 73.83827 | 33897 ft | 445 kts | 251° |
| 2026-04-21 11:05 | 44.87401 | 73.75653 | 33898 ft | 444 kts | 251° |
| 2026-04-21 11:05 | 44.85269 | 73.67505 | 33895 ft | 443 kts | 251° |
| 2026-04-21 11:06 | 44.83136 | 73.59379 | 33895 ft | 442 kts | 251° |
| 2026-04-21 11:06 | 44.81003 | 73.51280 | 33890 ft | 441 kts | 251° |
| 2026-04-21 11:07 | 44.78868 | 73.43204 | 33889 ft | 440 kts | 252° |
| 2026-04-21 11:07 | 44.76735 | 73.35155 | 33886 ft | 438 kts | 252° |
| 2026-04-21 11:08 | 44.74603 | 73.27134 | 33885 ft | 437 kts | 252° |
| 2026-04-21 11:08 | 44.72469 | 73.19145 | 33889 ft | 436 kts | 252° |
| 2026-04-21 11:09 | 44.70338 | 73.11191 | 33883 ft | 434 kts | 252° |
| 2026-04-21 11:09 | 44.68208 | 73.03264 | 33877 ft | 433 kts | 252° |
| 2026-04-21 11:10 | 44.66092 | 72.95409 | 33887 ft | 432 kts | 252° |
| 2026-04-21 11:10 | 44.63965 | 72.87539 | 33879 ft | 430 kts | 253° |
| 2026-04-21 11:11 | 44.61840 | 72.79700 | 33874 ft | 429 kts | 253° |
| 2026-04-21 11:11 | 44.59715 | 72.71889 | 33875 ft | 428 kts | 253° |
| 2026-04-21 11:12 | 44.57591 | 72.64106 | 33869 ft | 426 kts | 253° |
| 2026-04-21 11:12 | 44.55484 | 72.56409 | 33872 ft | 425 kts | 253° |
| 2026-04-21 11:13 | 44.53361 | 72.48679 | 33866 ft | 424 kts | 253° |
| 2026-04-21 11:13 | 44.51227 | 72.40931 | 33867 ft | 423 kts | 253° |
| 2026-04-21 11:14 | 44.49119 | 72.33306 | 33860 ft | 422 kts | 253° |
| 2026-04-21 11:14 | 44.46997 | 72.25652 | 33860 ft | 421 kts | 253° |
| 2026-04-21 11:15 | 44.44873 | 72.18012 | 33864 ft | 420 kts | 253° |
| 2026-04-21 11:15 | 44.42750 | 72.10403 | 33867 ft | 419 kts | 253° |
| 2026-04-21 11:16 | 44.40625 | 72.02810 | 33859 ft | 419 kts | 253° |
| 2026-04-21 11:16 | 44.38502 | 71.95246 | 33857 ft | 418 kts | 253° |
| 2026-04-21 11:17 | 44.36376 | 71.87693 | 33856 ft | 417 kts | 253° |
| 2026-04-21 11:17 | 44.34251 | 71.80171 | 33855 ft | 416 kts | 253° |
| 2026-04-21 11:18 | 44.32136 | 71.72703 | 33854 ft | 416 kts | 253° |
| 2026-04-21 11:18 | 44.30007 | 71.65208 | 33852 ft | 415 kts | 253° |
| 2026-04-21 11:19 | 44.27876 | 71.57730 | 33849 ft | 415 kts | 253° |
| 2026-04-21 11:19 | 44.25739 | 71.50249 | 33850 ft | 415 kts | 253° |
| 2026-04-21 11:20 | 44.23601 | 71.42787 | 33852 ft | 414 kts | 253° |
| 2026-04-21 11:20 | 44.21452 | 71.35331 | 33849 ft | 414 kts | 252° |
| 2026-04-21 11:21 | 44.19291 | 71.27894 | 33851 ft | 414 kts | 252° |
| 2026-04-21 11:21 | 44.17130 | 71.20476 | 33848 ft | 413 kts | 252° |
| 2026-04-21 11:22 | 44.14966 | 71.13065 | 33841 ft | 412 kts | 252° |
| 2026-04-21 11:22 | 44.12808 | 71.05684 | 33836 ft | 412 kts | 252° |
| 2026-04-21 11:23 | 44.10642 | 70.98306 | 33837 ft | 412 kts | 252° |
| 2026-04-21 11:23 | 44.08476 | 70.90940 | 33838 ft | 411 kts | 252° |
| 2026-04-21 11:24 | 44.06309 | 70.83580 | 33832 ft | 411 kts | 252° |
| 2026-04-21 11:24 | 44.04138 | 70.76223 | 33827 ft | 411 kts | 252° |
| 2026-04-21 11:25 | 44.01963 | 70.68872 | 33826 ft | 411 kts | 252° |
| 2026-04-21 11:25 | 43.99798 | 70.61579 | 33828 ft | 411 kts | 251° |
| 2026-04-21 11:26 | 43.97610 | 70.54228 | 33825 ft | 412 kts | 251° |
| 2026-04-21 11:26 | 43.95417 | 70.46880 | 33826 ft | 412 kts | 251° |
| 2026-04-21 11:27 | 43.93219 | 70.39539 | 33831 ft | 412 kts | 251° |
| 2026-04-21 11:27 | 43.91015 | 70.32198 | 33828 ft | 412 kts | 251° |
| 2026-04-21 11:28 | 43.88807 | 70.24866 | 33821 ft | 412 kts | 251° |
| 2026-04-21 11:28 | 43.86595 | 70.17542 | 33826 ft | 412 kts | 251° |
| 2026-04-21 11:29 | 43.84375 | 70.10212 | 33825 ft | 412 kts | 251° |
| 2026-04-21 11:29 | 43.82163 | 70.02927 | 33820 ft | 412 kts | 251° |
| 2026-04-21 11:30 | 43.79940 | 69.95629 | 33822 ft | 411 kts | 250° |
| 2026-04-21 11:30 | 43.77708 | 69.88320 | 33819 ft | 411 kts | 250° |
| 2026-04-21 11:31 | 43.75483 | 69.81056 | 33821 ft | 410 kts | 250° |
| 2026-04-21 11:31 | 43.73254 | 69.73798 | 33822 ft | 410 kts | 250° |
| 2026-04-21 11:32 | 43.71027 | 69.66567 | 33816 ft | 409 kts | 250° |
| 2026-04-21 11:32 | 43.68797 | 69.59345 | 33820 ft | 408 kts | 250° |
| 2026-04-21 11:33 | 43.66562 | 69.52126 | 33817 ft | 408 kts | 250° |
| 2026-04-21 11:33 | 43.64331 | 69.44937 | 33820 ft | 407 kts | 250° |
| 2026-04-21 11:34 | 43.61978 | 69.37834 | 33822 ft | 407 kts | 247° |
| 2026-04-21 11:34 | 43.59438 | 69.30856 | 33815 ft | 406 kts | 246° |
| 2026-04-21 11:35 | 43.56907 | 69.23942 | 33813 ft | 406 kts | 246° |
| 2026-04-21 11:35 | 43.54355 | 69.16953 | 33812 ft | 405 kts | 246° |
| 2026-04-21 11:36 | 43.51840 | 69.10063 | 33830 ft | 405 kts | 246° |
| 2026-04-21 11:36 | 43.49305 | 69.03136 | 33796 ft | 405 kts | 246° |
| 2026-04-21 11:37 | 43.46761 | 68.96200 | 33818 ft | 406 kts | 246° |
| 2026-04-21 11:37 | 43.44207 | 68.89257 | 33810 ft | 407 kts | 246° |
| 2026-04-21 11:38 | 43.41651 | 68.82323 | 33806 ft | 406 kts | 246° |
| 2026-04-21 11:38 | 43.39092 | 68.75397 | 33804 ft | 406 kts | 246° |
| 2026-04-21 11:39 | 43.36533 | 68.68485 | 33797 ft | 405 kts | 245° |
| 2026-04-21 11:39 | 43.34059 | 68.61554 | 33794 ft | 403 kts | 250° |
| 2026-04-21 11:40 | 43.32292 | 68.54255 | 33805 ft | 402 kts | 255° |
| 2026-04-21 11:40 | 43.31199 | 68.46737 | 33806 ft | 402 kts | 260° |
| 2026-04-21 11:41 | 43.30071 | 68.39229 | 33804 ft | 402 kts | 253° |
| 2026-04-21 11:41 | 43.28144 | 68.32021 | 33799 ft | 403 kts | 248° |
| 2026-04-21 11:42 | 43.25593 | 68.25162 | 33789 ft | 404 kts | 244° |
| 2026-04-21 11:42 | 43.22938 | 68.18385 | 33784 ft | 404 kts | 244° |
| 2026-04-21 11:43 | 43.20283 | 68.11589 | 33774 ft | 404 kts | 244° |
| 2026-04-21 11:43 | 43.17654 | 68.04836 | 33769 ft | 404 kts | 244° |
| 2026-04-21 11:44 | 43.15009 | 67.98045 | 33765 ft | 404 kts | 244° |
| 2026-04-21 11:44 | 43.12354 | 67.91246 | 33768 ft | 405 kts | 244° |
| 2026-04-21 11:45 | 43.09698 | 67.84460 | 33765 ft | 405 kts | 244° |
| 2026-04-21 11:45 | 43.07033 | 67.77664 | 33766 ft | 405 kts | 244° |
| 2026-04-21 11:46 | 43.04814 | 67.72020 | 33762 ft | 406 kts | 243° |
| 2026-04-21 11:46 | 43.02142 | 67.65234 | 33763 ft | 406 kts | 243° |
| 2026-04-21 11:47 | 42.99461 | 67.58446 | 33764 ft | 406 kts | 243° |
| 2026-04-21 11:47 | 42.96774 | 67.51653 | 33764 ft | 406 kts | 243° |
| 2026-04-21 11:48 | 42.94078 | 67.44849 | 33760 ft | 407 kts | 243° |
| 2026-04-21 11:48 | 42.91382 | 67.38057 | 33767 ft | 407 kts | 243° |
| 2026-04-21 11:49 | 42.88681 | 67.31267 | 33763 ft | 408 kts | 243° |
| 2026-04-21 11:49 | 42.85970 | 67.24469 | 33764 ft | 408 kts | 243° |
| 2026-04-21 11:50 | 42.83253 | 67.17673 | 33767 ft | 409 kts | 243° |
| 2026-04-21 11:50 | 42.80530 | 67.10876 | 33762 ft | 409 kts | 243° |
| 2026-04-21 11:51 | 42.77799 | 67.04075 | 33769 ft | 409 kts | 243° |
| 2026-04-21 11:51 | 42.75066 | 66.97286 | 33763 ft | 409 kts | 243° |
| 2026-04-21 11:52 | 42.72326 | 66.90497 | 33761 ft | 410 kts | 242° |
| 2026-04-21 11:52 | 42.69581 | 66.83708 | 33761 ft | 410 kts | 242° |
| 2026-04-21 11:53 | 42.66821 | 66.76901 | 33763 ft | 411 kts | 242° |
| 2026-04-21 11:53 | 42.64057 | 66.70100 | 33762 ft | 412 kts | 242° |
| 2026-04-21 11:54 | 42.61298 | 66.63325 | 33774 ft | 413 kts | 242° |
| 2026-04-21 11:54 | 42.58508 | 66.56492 | 33775 ft | 415 kts | 242° |
| 2026-04-21 11:55 | 42.55704 | 66.49640 | 33772 ft | 416 kts | 241° |
| 2026-04-21 11:55 | 42.52885 | 66.42768 | 33770 ft | 418 kts | 241° |
| 2026-04-21 11:56 | 42.50052 | 66.35875 | 33769 ft | 419 kts | 241° |
| 2026-04-21 11:56 | 42.47203 | 66.28963 | 33775 ft | 421 kts | 240° |
| 2026-04-21 11:57 | 42.44344 | 66.22039 | 33774 ft | 422 kts | 240° |
| 2026-04-21 11:57 | 42.41478 | 66.15116 | 33775 ft | 422 kts | 240° |
| 2026-04-21 11:58 | 42.38606 | 66.08195 | 33777 ft | 422 kts | 240° |
| 2026-04-21 11:58 | 42.35723 | 66.01298 | 33778 ft | 421 kts | 240° |
| 2026-04-21 11:59 | 42.32835 | 65.94409 | 33780 ft | 421 kts | 240° |
| 2026-04-21 11:59 | 42.29944 | 65.87527 | 33784 ft | 421 kts | 240° |
| 2026-04-21 12:00 | 42.27054 | 65.80658 | 33783 ft | 421 kts | 240° |
| 2026-04-21 12:00 | 42.24171 | 65.73822 | 33785 ft | 421 kts | 239° |
| 2026-04-21 12:01 | 42.21266 | 65.66948 | 33786 ft | 422 kts | 239° |
| 2026-04-21 12:01 | 42.18351 | 65.60068 | 33786 ft | 423 kts | 239° |
| 2026-04-21 12:02 | 42.13959 | 65.49732 | 33789 ft | 424 kts | 239° |
| 2026-04-21 12:03 | 42.11016 | 65.42822 | 33791 ft | 426 kts | 239° |
| 2026-04-21 12:03 | 42.08059 | 65.35899 | 33796 ft | 427 kts | 239° |
| 2026-04-21 12:04 | 42.05094 | 65.28965 | 33792 ft | 428 kts | 239° |
| 2026-04-21 12:04 | 42.02119 | 65.22019 | 33797 ft | 429 kts | 239° |
| 2026-04-21 12:05 | 41.99135 | 65.15065 | 33804 ft | 430 kts | 239° |
| 2026-04-21 12:05 | 41.96141 | 65.08107 | 33797 ft | 430 kts | 239° |
| 2026-04-21 12:06 | 41.93141 | 65.01149 | 33799 ft | 430 kts | 239° |
| 2026-04-21 12:06 | 41.90138 | 64.94202 | 33797 ft | 430 kts | 239° |
| 2026-04-21 12:07 | 41.87128 | 64.87255 | 33802 ft | 430 kts | 239° |
| 2026-04-21 12:07 | 41.84118 | 64.80321 | 33807 ft | 430 kts | 239° |
| 2026-04-21 12:08 | 41.81106 | 64.73399 | 33801 ft | 430 kts | 238° |
| 2026-04-21 12:08 | 41.78132 | 64.66577 | 33789 ft | 409 kts | 238° |
| 2026-04-21 12:08 | 41.76723 | 64.63351 | 33782 ft | 393 kts | 238° |
| 2026-04-21 12:09 | 41.75322 | 64.60306 | 33791 ft | 376 kts | 234° |
| 2026-04-21 12:09 | 41.73820 | 64.57526 | 33784 ft | 361 kts | 233° |
| 2026-04-21 12:09 | 41.72373 | 64.54901 | 33786 ft | 349 kts | 233° |
| 2026-04-21 12:10 | 41.69485 | 64.49662 | 33801 ft | 347 kts | 233° |
| 2026-04-21 12:10 | 41.66630 | 64.44450 | 33807 ft | 348 kts | 233° |
| 2026-04-21 12:11 | 41.63786 | 64.39243 | 33806 ft | 349 kts | 233° |
| 2026-04-21 12:11 | 41.60921 | 64.33998 | 33815 ft | 350 kts | 233° |
| 2026-04-21 12:12 | 41.58044 | 64.28738 | 33805 ft | 351 kts | 233° |
| 2026-04-21 12:12 | 41.55159 | 64.23473 | 33804 ft | 352 kts | 233° |
| 2026-04-21 12:13 | 41.52269 | 64.18207 | 33796 ft | 352 kts | 233° |
| 2026-04-21 12:13 | 41.49375 | 64.12943 | 33796 ft | 351 kts | 233° |
| 2026-04-21 12:14 | 41.46487 | 64.07699 | 33799 ft | 350 kts | 233° |
| 2026-04-21 12:14 | 41.43600 | 64.02463 | 33797 ft | 350 kts | 233° |
| 2026-04-21 12:15 | 41.40716 | 63.97242 | 33798 ft | 350 kts | 233° |
| 2026-04-21 12:15 | 41.37818 | 63.92044 | 33796 ft | 349 kts | 232° |
| 2026-04-21 12:16 | 41.34881 | 63.86902 | 33804 ft | 349 kts | 232° |
| 2026-04-21 12:16 | 41.31944 | 63.81772 | 33801 ft | 348 kts | 232° |
| 2026-04-21 12:17 | 41.29009 | 63.76649 | 33809 ft | 348 kts | 232° |
| 2026-04-21 12:17 | 41.26074 | 63.71527 | 33805 ft | 348 kts | 232° |
| 2026-04-21 12:18 | 41.23144 | 63.66420 | 33813 ft | 348 kts | 232° |
| 2026-04-21 12:18 | 41.20210 | 63.61315 | 33815 ft | 347 kts | 232° |
| 2026-04-21 12:19 | 41.17277 | 63.56219 | 33812 ft | 347 kts | 232° |
| 2026-04-21 12:19 | 41.14363 | 63.51165 | 33818 ft | 347 kts | 231° |
| 2026-04-21 12:20 | 41.11430 | 63.46084 | 33820 ft | 347 kts | 231° |
| 2026-04-21 12:20 | 41.08493 | 63.41008 | 33825 ft | 347 kts | 231° |
| 2026-04-21 12:21 | 41.05550 | 63.35928 | 33823 ft | 347 kts | 231° |
| 2026-04-21 12:21 | 41.02606 | 63.30855 | 33824 ft | 347 kts | 231° |
| 2026-04-21 12:22 | 40.99668 | 63.25800 | 33827 ft | 346 kts | 231° |
| 2026-04-21 12:22 | 40.96732 | 63.20759 | 33834 ft | 346 kts | 231° |
| 2026-04-21 12:23 | 40.93795 | 63.15722 | 33842 ft | 346 kts | 231° |
| 2026-04-21 12:23 | 40.90849 | 63.10680 | 33843 ft | 346 kts | 231° |
| 2026-04-21 12:24 | 40.87900 | 63.05639 | 33849 ft | 348 kts | 231° |
| 2026-04-21 12:24 | 40.84930 | 63.00572 | 33849 ft | 349 kts | 231° |
| 2026-04-21 12:25 | 40.81953 | 62.95500 | 33852 ft | 350 kts | 231° |
| 2026-04-21 12:25 | 40.78967 | 62.90422 | 33852 ft | 350 kts | 231° |
| 2026-04-21 12:26 | 40.75986 | 62.85361 | 33856 ft | 349 kts | 231° |
| 2026-04-21 12:26 | 40.73002 | 62.80302 | 33859 ft | 349 kts | 231° |
| 2026-04-21 12:27 | 40.70016 | 62.75248 | 33864 ft | 350 kts | 231° |
| 2026-04-21 12:27 | 40.67023 | 62.70191 | 33858 ft | 350 kts | 231° |
| 2026-04-21 12:28 | 40.64027 | 62.65138 | 33867 ft | 350 kts | 231° |
| 2026-04-21 12:28 | 40.61024 | 62.60082 | 33868 ft | 351 kts | 231° |
| 2026-04-21 12:29 | 40.58011 | 62.55015 | 33868 ft | 352 kts | 231° |
| 2026-04-21 12:29 | 40.54994 | 62.49949 | 33866 ft | 352 kts | 231° |
| 2026-04-21 12:30 | 40.51966 | 62.44874 | 33867 ft | 353 kts | 231° |
| 2026-04-21 12:30 | 40.48932 | 62.39798 | 33869 ft | 354 kts | 231° |
| 2026-04-21 12:31 | 40.45889 | 62.34714 | 33871 ft | 354 kts | 231° |
| 2026-04-21 12:31 | 40.43357 | 62.30489 | 33874 ft | 354 kts | 231° |
| 2026-04-21 12:32 | 40.39815 | 62.24589 | 33874 ft | 354 kts | 231° |
| 2026-04-21 12:32 | 40.36775 | 62.19530 | 33869 ft | 353 kts | 231° |
| 2026-04-21 12:33 | 40.34230 | 62.15286 | 33869 ft | 353 kts | 231° |
| 2026-04-21 12:33 | 40.31219 | 62.10267 | 33872 ft | 353 kts | 231° |
| 2026-04-21 12:34 | 40.28183 | 62.05216 | 33862 ft | 353 kts | 231° |
| 2026-04-21 12:34 | 40.25114 | 62.00117 | 33869 ft | 354 kts | 231° |
| 2026-04-21 12:35 | 40.22082 | 61.95087 | 33862 ft | 354 kts | 231° |
| 2026-04-21 12:35 | 40.19028 | 61.90031 | 33871 ft | 354 kts | 231° |
| 2026-04-21 12:36 | 40.15976 | 61.84986 | 33869 ft | 353 kts | 231° |
| 2026-04-21 12:36 | 40.12928 | 61.79956 | 33867 ft | 353 kts | 231° |
| 2026-04-21 12:36 | 40.11412 | 61.77455 | 33762 ft | 351 kts | 231° |
| 2026-04-21 12:37 | 40.09899 | 61.74963 | 33334 ft | 349 kts | 231° |
| 2026-04-21 12:37 | 40.08397 | 61.72491 | 32874 ft | 347 kts | 231° |
| 2026-04-21 12:37 | 40.06899 | 61.70026 | 32413 ft | 346 kts | 231° |
| 2026-04-21 12:37 | 40.05406 | 61.67572 | 31993 ft | 344 kts | 230° |
| 2026-04-21 12:38 | 40.03910 | 61.65116 | 31898 ft | 347 kts | 230° |
| 2026-04-21 12:38 | 40.00910 | 61.60197 | 31872 ft | 345 kts | 230° |
| 2026-04-21 12:39 | 39.97933 | 61.55320 | 31867 ft | 343 kts | 230° |
| 2026-04-21 12:39 | 39.94963 | 61.50464 | 31870 ft | 342 kts | 230° |
| 2026-04-21 12:40 | 39.92003 | 61.45629 | 31863 ft | 341 kts | 231° |
| 2026-04-21 12:40 | 39.89044 | 61.40805 | 31871 ft | 341 kts | 230° |
| 2026-04-21 12:41 | 39.86096 | 61.35975 | 31871 ft | 341 kts | 231° |
| 2026-04-21 12:41 | 39.83146 | 61.31124 | 31869 ft | 342 kts | 231° |
| 2026-04-21 12:42 | 39.80166 | 61.26294 | 31872 ft | 342 kts | 230° |
| 2026-04-21 12:42 | 39.78680 | 61.23895 | 31756 ft | 341 kts | 230° |
| 2026-04-21 12:42 | 39.77192 | 61.21492 | 31280 ft | 342 kts | 230° |
| 2026-04-21 12:42 | 39.75680 | 61.19052 | 30455 ft | 355 kts | 230° |
| 2026-04-21 12:43 | 39.74080 | 61.16470 | 30226 ft | 377 kts | 230° |
| 2026-04-21 12:43 | 39.72391 | 61.13748 | 30074 ft | 393 kts | 230° |
| 2026-04-21 12:43 | 39.70655 | 61.10949 | 29911 ft | 404 kts | 230° |
| 2026-04-21 12:43 | 39.68863 | 61.08062 | 29897 ft | 418 kts | 230° |
| 2026-04-21 12:44 | 39.67028 | 61.05108 | 29878 ft | 424 kts | 230° |
| 2026-04-21 12:44 | 39.63312 | 60.99129 | 29863 ft | 424 kts | 230° |
| 2026-04-21 12:45 | 39.59618 | 60.93196 | 29861 ft | 421 kts | 230° |
| 2026-04-21 12:45 | 39.55962 | 60.87338 | 29868 ft | 420 kts | 230° |
| 2026-04-21 12:46 | 39.52285 | 60.81458 | 29868 ft | 420 kts | 230° |
| 2026-04-21 12:46 | 39.48593 | 60.75566 | 29865 ft | 421 kts | 230° |
| 2026-04-21 12:47 | 39.44906 | 60.69656 | 29867 ft | 422 kts | 231° |
| 2026-04-21 12:47 | 39.41241 | 60.63717 | 29867 ft | 423 kts | 231° |
| 2026-04-21 12:48 | 39.37609 | 60.57832 | 29862 ft | 418 kts | 231° |
| 2026-04-21 12:48 | 39.33955 | 60.51932 | 29868 ft | 423 kts | 231° |
| 2026-04-21 12:49 | 39.30277 | 60.46010 | 29863 ft | 422 kts | 231° |
| 2026-04-21 12:49 | 39.26609 | 60.40116 | 29859 ft | 421 kts | 231° |
| 2026-04-21 12:50 | 39.22943 | 60.34235 | 29858 ft | 420 kts | 231° |
| 2026-04-21 12:50 | 39.19285 | 60.28376 | 29859 ft | 419 kts | 231° |
| 2026-04-21 12:51 | 39.15626 | 60.22528 | 29867 ft | 419 kts | 231° |
| 2026-04-21 12:51 | 39.11962 | 60.16684 | 29859 ft | 419 kts | 231° |
| 2026-04-21 12:52 | 39.08313 | 60.10873 | 29861 ft | 419 kts | 231° |
| 2026-04-21 12:52 | 39.04642 | 60.05039 | 29861 ft | 420 kts | 231° |
| 2026-04-21 12:53 | 39.00966 | 59.99206 | 29864 ft | 420 kts | 231° |
| 2026-04-21 12:53 | 38.97286 | 59.93376 | 29859 ft | 418 kts | 230° |
| 2026-04-21 12:54 | 38.93632 | 59.87602 | 29868 ft | 420 kts | 230° |
| 2026-04-21 12:54 | 38.89934 | 59.81766 | 29863 ft | 421 kts | 230° |
| 2026-04-21 12:55 | 38.86243 | 59.75952 | 29825 ft | 418 kts | 230° |
| 2026-04-21 12:55 | 38.84414 | 59.73075 | 29263 ft | 414 kts | 230° |
| 2026-04-21 12:55 | 38.82618 | 59.70252 | 28220 ft | 403 kts | 230° |
| 2026-04-21 12:55 | 38.80863 | 59.67495 | 26822 ft | 398 kts | 231° |
| 2026-04-21 12:56 | 38.79106 | 59.64739 | 25299 ft | 400 kts | 231° |
| 2026-04-21 12:56 | 38.77322 | 59.61943 | 24326 ft | 407 kts | 231° |
| 2026-04-21 12:56 | 38.75545 | 59.59160 | 23989 ft | 397 kts | 231° |
| 2026-04-21 12:56 | 38.73834 | 59.56483 | 23862 ft | 381 kts | 231° |
| 2026-04-21 12:57 | 38.72206 | 59.53937 | 23702 ft | 368 kts | 231° |
| 2026-04-21 12:57 | 38.70606 | 59.51438 | 23474 ft | 359 kts | 231° |
| 2026-04-21 12:57 | 38.69024 | 59.48969 | 23195 ft | 350 kts | 230° |
| 2026-04-21 12:57 | 38.67517 | 59.46617 | 22478 ft | 342 kts | 231° |
| 2026-04-21 12:58 | 38.66009 | 59.44268 | 21459 ft | 342 kts | 231° |
| 2026-04-21 12:58 | 38.64495 | 59.41910 | 20409 ft | 344 kts | 231° |
| 2026-04-21 12:58 | 38.62976 | 59.39544 | 19385 ft | 345 kts | 231° |
| 2026-04-21 12:58 | 38.61430 | 59.37140 | 18436 ft | 348 kts | 231° |
| 2026-04-21 12:59 | 38.59899 | 59.34759 | 17901 ft | 349 kts | 231° |
| 2026-04-21 12:59 | 38.58385 | 59.32408 | 17794 ft | 336 kts | 231° |
| 2026-04-21 12:59 | 38.56927 | 59.30146 | 17707 ft | 323 kts | 231° |
| 2026-04-21 12:59 | 38.55521 | 59.27965 | 17567 ft | 312 kts | 231° |
| 2026-04-21 13:00 | 38.54161 | 59.25857 | 17371 ft | 304 kts | 231° |
| 2026-04-21 13:00 | 38.52823 | 59.23782 | 17061 ft | 300 kts | 231° |
| 2026-04-21 13:00 | 38.51501 | 59.21735 | 16650 ft | 296 kts | 231° |
| 2026-04-21 13:00 | 38.50198 | 59.19720 | 15969 ft | 293 kts | 231° |
| 2026-04-21 13:01 | 38.48899 | 59.17712 | 15227 ft | 294 kts | 231° |
| 2026-04-21 13:01 | 38.47541 | 59.15762 | 14514 ft | 294 kts | 225° |
| 2026-04-21 13:01 | 38.46001 | 59.14060 | 13859 ft | 293 kts | 220° |
| 2026-04-21 13:01 | 38.44409 | 59.12454 | 13175 ft | 290 kts | 219° |
| 2026-04-21 13:02 | 38.42824 | 59.10877 | 12502 ft | 288 kts | 219° |
| 2026-04-21 13:02 | 38.41240 | 59.09292 | 11955 ft | 291 kts | 220° |
| 2026-04-21 13:02 | 38.38159 | 59.06175 | 11731 ft | 274 kts | 220° |
| 2026-04-21 13:03 | 38.36695 | 59.04684 | 11628 ft | 266 kts | 220° |
| 2026-04-21 13:03 | 38.35281 | 59.03240 | 11361 ft | 256 kts | 220° |
| 2026-04-21 13:03 | 38.33895 | 59.01820 | 10756 ft | 256 kts | 220° |
| 2026-04-21 13:03 | 38.32505 | 59.00394 | 10153 ft | 257 kts | 220° |
| 2026-04-21 13:04 | 38.31118 | 58.98970 | 9594 ft | 255 kts | 220° |
| 2026-04-21 13:04 | 38.29738 | 58.97554 | 9008 ft | 257 kts | 220° |
| 2026-04-21 13:04 | 38.28361 | 58.96140 | 8688 ft | 257 kts | 220° |
| 2026-04-21 13:04 | 38.26980 | 58.94722 | 8440 ft | 253 kts | 220° |
| 2026-04-21 13:05 | 38.25593 | 58.93299 | 8152 ft | 253 kts | 219° |
| 2026-04-21 13:05 | 38.24224 | 58.91896 | 7836 ft | 253 kts | 219° |
| 2026-04-21 13:05 | 38.22871 | 58.90508 | 7529 ft | 253 kts | 219° |
| 2026-04-21 13:05 | 38.21502 | 58.89106 | 7244 ft | 252 kts | 219° |
| 2026-04-21 13:06 | 38.20140 | 58.87711 | 6947 ft | 251 kts | 219° |
| 2026-04-21 13:06 | 38.18780 | 58.86319 | 6671 ft | 251 kts | 219° |
| 2026-04-21 13:06 | 38.17422 | 58.84929 | 6394 ft | 250 kts | 219° |
| 2026-04-21 13:06 | 38.16070 | 58.83546 | 6135 ft | 249 kts | 219° |
| 2026-04-21 13:07 | 38.14721 | 58.82167 | 5826 ft | 249 kts | 219° |
| 2026-04-21 13:07 | 38.13375 | 58.80792 | 5551 ft | 248 kts | 219° |
| 2026-04-21 13:07 | 38.12037 | 58.79425 | 5258 ft | 247 kts | 219° |
| 2026-04-21 13:07 | 38.10695 | 58.78055 | 4952 ft | 247 kts | 219° |
| 2026-04-21 13:08 | 38.09355 | 58.76689 | 4683 ft | 247 kts | 219° |
| 2026-04-21 13:08 | 38.08018 | 58.75325 | 4398 ft | 246 kts | 219° |
| 2026-04-21 13:08 | 38.06691 | 58.73972 | 4254 ft | 240 kts | 219° |
| 2026-04-21 13:08 | 38.05402 | 58.72659 | 4254 ft | 239 kts | 219° |
| 2026-04-21 13:09 | 38.04092 | 58.71324 | 4267 ft | 241 kts | 219° |
| 2026-04-21 13:09 | 38.02804 | 58.70013 | 4251 ft | 233 kts | 219° |
| 2026-04-21 13:09 | 38.01567 | 58.68754 | 4240 ft | 226 kts | 220° |
| 2026-04-21 13:09 | 38.00761 | 58.67935 | 4245 ft | 225 kts | 220° |
| 2026-04-21 13:10 | 37.99902 | 58.67061 | 4242 ft | 224 kts | 220° |
| 2026-04-21 13:10 | 37.98676 | 58.65814 | 4184 ft | 230 kts | 220° |
| 2026-04-21 13:10 | 37.97400 | 58.64516 | 3844 ft | 238 kts | 220° |
| 2026-04-21 13:10 | 37.96100 | 58.63197 | 3536 ft | 240 kts | 220° |
| 2026-04-21 13:11 | 37.94794 | 58.61872 | 3209 ft | 239 kts | 220° |
| 2026-04-21 13:11 | 37.93638 | 58.60461 | 2987 ft | 222 kts | 239° |
| 2026-04-21 13:11 | 37.93006 | 58.58670 | 2924 ft | 228 kts | 254° |
| 2026-04-21 13:11 | 37.92580 | 58.56774 | 2762 ft | 217 kts | 256° |
| 2026-04-21 13:12 | 37.92203 | 58.55020 | 2678 ft | 197 kts | 257° |
| 2026-04-21 13:12 | 37.91963 | 58.53380 | 2551 ft | 188 kts | 275° |
| 2026-04-21 13:12 | 37.92251 | 58.51800 | 2517 ft | 182 kts | 296° |
| 2026-04-21 13:12 | 37.92832 | 58.50408 | 2522 ft | 179 kts | 301° |
| 2026-04-21 13:13 | 37.93446 | 58.49042 | 2524 ft | 179 kts | 301° |
| 2026-04-21 13:13 | 37.94056 | 58.47691 | 2472 ft | 179 kts | 300° |
| 2026-04-21 13:13 | 37.94665 | 58.46327 | 2197 ft | 170 kts | 301° |
| 2026-04-21 13:13 | 37.95205 | 58.45114 | 1985 ft | 147 kts | 300° |
| 2026-04-21 13:14 | 37.95682 | 58.44043 | 1780 ft | 138 kts | 300° |
| 2026-04-21 13:14 | 37.96146 | 58.43004 | 1613 ft | 137 kts | 300° |
| 2026-04-21 13:14 | 37.96608 | 58.41964 | 1431 ft | 132 kts | 300° |
| 2026-04-21 13:14 | 37.97053 | 58.40966 | 1258 ft | 130 kts | 299° |
| 2026-04-21 13:15 | 37.97505 | 58.39950 | 1069 ft | 133 kts | 299° |
| 2026-04-21 13:15 | 37.97955 | 58.38938 | 878 ft | 132 kts | 300° |
| 2026-04-21 13:15 | 37.98411 | 58.37927 | 716 ft | 133 kts | 300° |
| 2026-04-21 13:15 | 37.98836 | 58.36981 | 679 ft | 108 kts | 299° |
| 2026-04-21 13:16 | 37.99147 | 58.36283 | 680 ft | 74 kts | 299° |
| 2026-04-21 13:16 | 37.99348 | 58.35806 | 683 ft | 48 kts | 285° |
| 2026-04-21 13:16 | 37.99322 | 58.35495 | 681 ft | 16 kts | 219° |
| 2026-04-21 13:16 | 37.99250 | 58.35521 | 676 ft | 12 kts | 128° |
| 2026-04-21 13:17 | 37.99194 | 58.35640 | 679 ft | 23 kts | 119° |
| 2026-04-21 13:17 | 37.99110 | 58.35827 | 678 ft | 24 kts | 120° |
| 2026-04-21 13:17 | 37.99026 | 58.36014 | 676 ft | 24 kts | 120° |
| 2026-04-21 13:17 | 37.98944 | 58.36202 | 678 ft | 24 kts | 119° |
| 2026-04-21 13:18 | 37.98858 | 58.36389 | 677 ft | 24 kts | 120° |
| 2026-04-21 13:18 | 37.98776 | 58.36577 | 679 ft | 24 kts | 120° |
| 2026-04-21 13:18 | 37.98683 | 58.36648 | 679 ft | 11 kts | 177° |
| 2026-04-21 13:18 | 37.98613 | 58.36729 | 678 ft | 18 kts | 120° |
| 2026-04-21 13:19 | 37.98552 | 58.36867 | 677 ft | 16 kts | 119° |
| 2026-04-21 13:19 | 37.98510 | 58.36888 | 678 ft | 4 kts | 199° |
| 2026-04-21 13:19 | 37.98477 | 58.36861 | 678 ft | 4 kts | 210° |
| 2026-04-21 13:19 | 37.98465 | 58.36853 | 678 ft | 1 kts | 210° |
| 2026-04-21 13:20 | 37.98459 | 58.36848 | 678 ft | 2 kts | 210° |
| 2026-04-21 13:20 | 37.98457 | 58.36847 | 678 ft | 0 kts | 210° |